Observation data for Wall on 01/19/2019      Previous  Date  Next       Current Mesonet Observations  Soil Data  Daily Summary Page  Observations in Plain Language
KWA1 190600Z 32021KT 12/03 A2995 RMK A01 T01190029  RH  054%=      5-min Rain = 0
KWA1 190601Z 32021KT 12/03 A2995 RMK A01 T01200030  RH  054%=      5-min Rain = 0
KWA1 190602Z 32022KT 12/03 A2995 RMK A01 T01200030  RH  054%=      5-min Rain = 0
KWA1 190603Z 32020KT 12/03 A2995 RMK A01 T01200030  RH  054%=      5-min Rain = 0
KWA1 190604Z 32018G23KT 12/03 A2995 RMK A01 T01200030  RH  054%=      5-min Rain = 0
KWA1 190605Z 32018KT 12/03 A2995 RMK A01 T01200030  RH  054%=      5-min Rain = 0
KWA1 190606Z 32018KT 12/03 A2995 RMK A01 T01190030  RH  055%=      5-min Rain = 0
KWA1 190607Z 32016KT 12/03 A2996 RMK A01 T01180030  RH  055%=      5-min Rain = 0
KWA1 190608Z 33017KT 12/03 A2996 RMK A01 T01170031  RH  055%=      5-min Rain = 0
KWA1 190609Z 33018KT 12/03 A2996 RMK A01 T01160027  RH  055%=      5-min Rain = 0
KWA1 190610Z 34020G25KT 11/02 A2996 RMK A01 T01140024  RH  054%=      5-min Rain = 0
KWA1 190611Z 34019KT 11/02 A2997 RMK A01 T01110021  RH  054%=      5-min Rain = 0
KWA1 190612Z 33020KT 11/02 A2996 RMK A01 T01090020  RH  054%=      5-min Rain = 0
KWA1 190613Z 33017KT 11/02 A2997 RMK A01 T01090020  RH  054%=      5-min Rain = 0
KWA1 190614Z 33016KT 11/02 A2997 RMK A01 T01090020  RH  054%=      5-min Rain = 0
KWA1 190615Z 33016G21KT 11/02 A2997 RMK A01 T01080020  RH  055%=      5-min Rain = 0
KWA1 190616Z 33014KT 11/02 A2997 RMK A01 T01070021  RH  055%=      5-min Rain = 0
KWA1 190617Z 33015KT 11/02 A2997 RMK A01 T01060021  RH  056%=      5-min Rain = 0
KWA1 190618Z 34014KT 11/02 A2998 RMK A01 T01050021  RH  056%=      5-min Rain = 0
KWA1 190619Z 34014KT 11/02 A2998 RMK A01 T01050021  RH  056%=      5-min Rain = 0
KWA1 190620Z 34014KT 11/02 A2998 RMK A01 T01050021  RH  056%=      5-min Rain = 0
KWA1 190621Z 34011KT 11/02 A2998 RMK A01 T01050021  RH  056%=      5-min Rain = 0
KWA1 190622Z 34012KT 10/02 A2998 RMK A01 T01040021  RH  057%=      5-min Rain = 0
KWA1 190623Z 34014KT 10/02 A2998 RMK A01 T01030022  RH  057%=      5-min Rain = 0
KWA1 190624Z 34015KT 10/02 A2998 RMK A01 T01030021  RH  057%=      5-min Rain = 0
KWA1 190625Z 33016KT 10/02 A2998 RMK A01 T01030021  RH  057%=      5-min Rain = 0
KWA1 190626Z 33016KT 10/02 A2998 RMK A01 T01030021  RH  057%=      5-min Rain = 0
KWA1 190627Z 33018KT 10/02 A2999 RMK A01 T01030021  RH  057%=      5-min Rain = 0
KWA1 190628Z 33016KT 10/02 A2999 RMK A01 T01030020  RH  056%=      5-min Rain = 0
KWA1 190629Z 33016KT 10/02 A2999 RMK A01 T01030021  RH  057%=      5-min Rain = 0
KWA1 190630Z 33015KT 10/02 A2999 RMK A01 T01030021  RH  057%=      5-min Rain = 0
KWA1 190631Z 33015KT 10/02 A2999 RMK A01 T01030021  RH  057%=      5-min Rain = 0
KWA1 190632Z 34013KT 10/02 A2999 RMK A01 T01030022  RH  057%=      5-min Rain = 0
KWA1 190633Z 33014KT 10/02 A2999 RMK A01 T01030022  RH  057%=      5-min Rain = 0
KWA1 190634Z 33014KT 10/02 A2999 RMK A01 T01030022  RH  057%=      5-min Rain = 0
KWA1 190635Z 33017G22KT 10/02 A2999 RMK A01 T01030022  RH  057%=      5-min Rain = 0
KWA1 190636Z 33018KT 10/02 A2999 RMK A01 T01030022  RH  057%=      5-min Rain = 0
KWA1 190637Z 32018KT 10/02 A2999 RMK A01 T01020021  RH  057%=      5-min Rain = 0
KWA1 190638Z 32017KT 10/02 A2999 RMK A01 T01030021  RH  057%=      5-min Rain = 0
KWA1 190639Z 32018KT 10/02 A30 RMK A01 T01030022  RH  057%=      5-min Rain = 0
KWA1 190640Z 32018KT 10/02 A30 RMK A01 T01030022  RH  057%=      5-min Rain = 0
KWA1 190641Z 32020G25KT 10/02 A30 RMK A01 T01030022  RH  057%=      5-min Rain = 0
KWA1 190642Z 33017KT 10/02 A30 RMK A01 T01030022  RH  057%=      5-min Rain = 0
KWA1 190643Z 32018KT 10/02 A30 RMK A01 T01030022  RH  057%=      5-min Rain = 0
KWA1 190644Z 32019KT 10/02 A30 RMK A01 T01040023  RH  057%=      5-min Rain = 0
KWA1 190645Z 32022KT 10/02 A30 RMK A01 T01030023  RH  057%=      5-min Rain = 0
KWA1 190646Z 33022G27KT 10/02 A30 RMK A01 T01040022  RH  057%=      5-min Rain = 0
KWA1 190647Z 33030G35KT 10/02 A30 RMK A01 T01030016  RH  055%=      5-min Rain = 0
KWA1 190648Z 33029G35KT 10/01 A30 RMK A01 T01010013  RH  054%=      5-min Rain = 0
KWA1 190649Z 33028G35KT 10/01 A30 RMK A01 T00990011  RH  054%=      5-min Rain = 0
KWA1 190650Z 32029G35KT 10/01 A3001 RMK A01 T00990012  RH  055%=      5-min Rain = 0
KWA1 190651Z 32024G29KT 10/01 A3001 RMK A01 T00980013  RH  056%=      5-min Rain = 0
KWA1 190652Z 32022KT 10/01 A3001 RMK A01 T00960014  RH  056%=      5-min Rain = 0
KWA1 190653Z 32024KT 10/01 A3001 RMK A01 T00950014  RH  057%=      5-min Rain = 0
KWA1 190654Z 32026G33KT 09/01 A3002 RMK A01 T00940012  RH  057%=      5-min Rain = 0
KWA1 190655Z 33029KT 09/01 A3002 RMK A01 T00920010  RH  056%=      5-min Rain = 0
KWA1 190656Z 33030KT 09/01 A3002 RMK A01 T00910007  RH  056%=      5-min Rain = 0
KWA1 190657Z 33027KT 09/00 A3002 RMK A01 T00890004  RH  055%=      5-min Rain = 0
KWA1 190658Z 33028KT 09/00 A3002 RMK A01 T00870002  RH  055%=      5-min Rain = 0
KWA1 190659Z 33026KT 09/00 A3002 RMK A01 T00870001  RH  055%=      5-min Rain = 0
KWA1 190700Z 33025G30KT 09/00 A3002 RMK A01 T00860001  RH  055%=      5-min Rain = 0
KWA1 190701Z 33024KT 09/00 A3002 RMK A01 T00850000  RH  055%=      5-min Rain = 0
KWA1 190702Z 33026KT 09/00 A3002 RMK A01 T008500-0  RH  055%=      5-min Rain = 0
KWA1 190703Z 33029KT 08/M00 A3002 RMK A01 T00841003  RH  054%=      5-min Rain = 0
KWA1 190704Z 33028G35KT 08/M01 A3002 RMK A01 T00831006  RH  053%=      5-min Rain = 0
KWA1 190705Z 33024KT 08/M01 A3002 RMK A01 T00821005  RH  054%=      5-min Rain = 0
KWA1 190706Z 33026G32KT 08/M01 A3002 RMK A01 T00821005  RH  054%=      5-min Rain = 0
KWA1 190707Z 33025G30KT 08/M01 A3002 RMK A01 T00811008  RH  053%=      5-min Rain = 0
KWA1 190708Z 32024G30KT 08/M01 A3003 RMK A01 T00811007  RH  054%=      5-min Rain = 0
KWA1 190709Z 32027KT 08/M01 A3003 RMK A01 T00801007  RH  054%=      5-min Rain = 0
KWA1 190710Z 32024G29KT 08/M01 A3003 RMK A01 T00801007  RH  054%=      5-min Rain = 0
KWA1 190711Z 33024G29KT 08/M01 A3003 RMK A01 T00801007  RH  054%=      5-min Rain = 0
KWA1 190712Z 32023G29KT 08/M01 A3003 RMK A01 T00791007  RH  054%=      5-min Rain = 0
KWA1 190713Z 32023KT 08/M01 A3003 RMK A01 T00791008  RH  054%=      5-min Rain = 0
KWA1 190714Z 32019KT 08/M01 A3003 RMK A01 T00791007  RH  055%=      5-min Rain = 0
KWA1 190715Z 32018KT 08/M01 A3003 RMK A01 T00781006  RH  055%=      5-min Rain = 0
KWA1 190716Z 33017KT 08/M01 A3003 RMK A01 T00781005  RH  056%=      5-min Rain = 0
KWA1 190717Z 33019G25KT 08/M01 A3003 RMK A01 T00781006  RH  055%=      5-min Rain = 0
KWA1 190718Z 33021KT 08/M01 A3003 RMK A01 T00771007  RH  055%=      5-min Rain = 0
KWA1 190719Z 33017G22KT 08/M01 A3003 RMK A01 T00771007  RH  055%=      5-min Rain = 0
KWA1 190720Z 33019KT 08/M01 A3003 RMK A01 T00771006  RH  056%=      5-min Rain = 0
KWA1 190721Z 33017KT 08/M01 A3003 RMK A01 T00761006  RH  056%=      5-min Rain = 0
KWA1 190722Z 33018G23KT 08/M01 A3003 RMK A01 T00771005  RH  056%=      5-min Rain = 0
KWA1 190723Z 33018KT 08/M01 A3003 RMK A01 T00771006  RH  056%=      5-min Rain = 0
KWA1 190724Z 32018KT 08/M01 A3003 RMK A01 T00761006  RH  056%=      5-min Rain = 0
KWA1 190725Z 33017KT 08/M01 A3003 RMK A01 T00761007  RH  056%=      5-min Rain = 0
KWA1 190726Z 32020KT 08/M01 A3003 RMK A01 T00761006  RH  056%=      5-min Rain = 0
KWA1 190727Z 33019KT 08/M01 A3003 RMK A01 T00761007  RH  056%=      5-min Rain = 0
KWA1 190728Z 33018G23KT 08/M01 A3003 RMK A01 T00761007  RH  056%=      5-min Rain = 0
KWA1 190729Z 32016G24KT 08/M01 A3003 RMK A01 T00761006  RH  056%=      5-min Rain = 0
KWA1 190730Z 32020KT 08/M01 A3003 RMK A01 T00751007  RH  056%=      5-min Rain = 0
KWA1 190731Z 32021KT 08/M01 A3003 RMK A01 T00761006  RH  056%=      5-min Rain = 0
KWA1 190732Z 32020KT 08/M01 A3003 RMK A01 T00761006  RH  056%=      5-min Rain = 0
KWA1 190733Z 32019KT 08/M01 A3003 RMK A01 T00751006  RH  056%=      5-min Rain = 0
KWA1 190734Z 32017KT 08/M01 A3004 RMK A01 T00751006  RH  056%=      5-min Rain = 0
KWA1 190735Z 32018G24KT 08/M01 A3004 RMK A01 T00751005  RH  057%=      5-min Rain = 0
KWA1 190736Z 32022KT 08/M01 A3004 RMK A01 T00751006  RH  056%=      5-min Rain = 0
KWA1 190737Z 32022KT 08/M01 A3003 RMK A01 T00751007  RH  056%=      5-min Rain = 0
KWA1 190738Z 32021KT 08/M01 A3003 RMK A01 T00751008  RH  056%=      5-min Rain = 0
KWA1 190739Z 32020KT 07/M01 A3004 RMK A01 T00741007  RH  056%=      5-min Rain = 0
KWA1 190740Z 32019KT 07/M01 A3004 RMK A01 T00741007  RH  056%=      5-min Rain = 0
KWA1 190741Z 32018KT 07/M01 A3004 RMK A01 T00731007  RH  057%=      5-min Rain = 0
KWA1 190742Z 32015KT 07/M01 A3004 RMK A01 T00721007  RH  057%=      5-min Rain = 0
KWA1 190743Z 32016KT 07/M01 A3004 RMK A01 T00721007  RH  057%=      5-min Rain = 0
KWA1 190744Z 32015G20KT 07/M01 A3004 RMK A01 T00711007  RH  058%=      5-min Rain = 0
KWA1 190745Z 33015G20KT 07/M01 A3004 RMK A01 T00701007  RH  058%=      5-min Rain = 0
KWA1 190746Z 32016KT 07/M01 A3005 RMK A01 T00701008  RH  058%=      5-min Rain = 0
KWA1 190747Z 33020G25KT 07/M01 A3004 RMK A01 T00701008  RH  058%=      5-min Rain = 0
KWA1 190748Z 33020G25KT 07/M01 A3005 RMK A01 T00701009  RH  057%=      5-min Rain = 0
KWA1 190749Z 32018G23KT 07/M01 A3005 RMK A01 T00701009  RH  057%=      5-min Rain = 0
KWA1 190750Z 32017KT 07/M01 A3005 RMK A01 T00691009  RH  057%=      5-min Rain = 0
KWA1 190751Z 32017KT 07/M01 A3005 RMK A01 T00681009  RH  058%=      5-min Rain = 0
KWA1 190752Z 32021KT 07/M01 A3005 RMK A01 T00681009  RH  058%=      5-min Rain = 0
KWA1 190753Z 32022G28KT 07/M01 A3005 RMK A01 T00681009  RH  058%=      5-min Rain = 0
KWA1 190754Z 32025G30KT 07/M01 A3005 RMK A01 T00681011  RH  057%=      5-min Rain = 0
KWA1 190755Z 32025G30KT 07/M01 A3005 RMK A01 T00691012  RH  056%=      5-min Rain = 0
KWA1 190756Z 33022G27KT 07/M01 A3005 RMK A01 T00691013  RH  056%=      5-min Rain = 0
KWA1 190757Z 33025KT 07/M01 A3005 RMK A01 T00691012  RH  056%=      5-min Rain = 0
KWA1 190758Z 33026KT 07/M01 A3004 RMK A01 T00691012  RH  056%=      5-min Rain = 0
KWA1 190759Z 32023KT 07/M01 A3004 RMK A01 T00681013  RH  056%=      5-min Rain = 0
KWA1 190800Z 33020G29KT 07/M01 A3005 RMK A01 T00681012  RH  057%=      5-min Rain = 0
KWA1 190801Z 33023G28KT 07/M01 A3004 RMK A01 T00671012  RH  057%=      5-min Rain = 0
KWA1 190802Z 32019KT 07/M01 A3005 RMK A01 T00671012  RH  057%=      5-min Rain = 0
KWA1 190803Z 33019KT 07/M01 A3005 RMK A01 T00671012  RH  057%=      5-min Rain = 0
KWA1 190804Z 32016KT 07/M01 A3005 RMK A01 T00671012  RH  057%=      5-min Rain = 0
KWA1 190805Z 32016G21KT 07/M01 A3005 RMK A01 T00661011  RH  058%=      5-min Rain = 0
KWA1 190806Z 32020KT 07/M01 A3005 RMK A01 T00661011  RH  058%=      5-min Rain = 0
KWA1 190807Z 32019KT 07/M01 A3005 RMK A01 T00661012  RH  058%=      5-min Rain = 0
KWA1 190808Z 32016KT 07/M01 A3005 RMK A01 T00661011  RH  058%=      5-min Rain = 0
KWA1 190809Z 32018KT 07/M01 A3005 RMK A01 T00671011  RH  058%=      5-min Rain = 0
KWA1 190810Z 32017G22KT 07/M01 A3005 RMK A01 T00671011  RH  058%=      5-min Rain = 0
KWA1 190811Z 32018G24KT 07/M01 A3005 RMK A01 T00671010  RH  058%=      5-min Rain = 0
KWA1 190812Z 33019G24KT 07/M01 A3005 RMK A01 T00671010  RH  058%=      5-min Rain = 0
KWA1 190813Z 32017G23KT 07/M01 A3005 RMK A01 T00671011  RH  057%=      5-min Rain = 0
KWA1 190814Z 33016KT 07/M01 A3005 RMK A01 T00681010  RH  058%=      5-min Rain = 0
KWA1 190815Z 33017KT 07/M01 A3005 RMK A01 T00681010  RH  058%=      5-min Rain = 0
KWA1 190816Z 33016KT 07/M01 A3006 RMK A01 T00681010  RH  057%=      5-min Rain = 0
KWA1 190817Z 32016KT 07/M01 A3006 RMK A01 T00681009  RH  058%=      5-min Rain = 0
KWA1 190818Z 33021KT 07/M01 A3006 RMK A01 T00681010  RH  057%=      5-min Rain = 0
KWA1 190819Z 33018KT 07/M01 A3006 RMK A01 T00691011  RH  057%=      5-min Rain = 0
KWA1 190820Z 33020KT 07/M01 A3006 RMK A01 T00691011  RH  057%=      5-min Rain = 0
KWA1 190821Z 33018KT 07/M01 A3006 RMK A01 T00691011  RH  057%=      5-min Rain = 0
KWA1 190822Z 33020KT 07/M01 A3006 RMK A01 T00691010  RH  057%=      5-min Rain = 0
KWA1 190823Z 33019KT 07/M01 A3006 RMK A01 T00691011  RH  057%=      5-min Rain = 0
KWA1 190824Z 34019KT 07/M01 A3006 RMK A01 T00691011  RH  057%=      5-min Rain = 0
KWA1 190825Z 33020G26KT 07/M01 A3006 RMK A01 T00691011  RH  057%=      5-min Rain = 0
KWA1 190826Z 33019KT 07/M01 A3006 RMK A01 T00691011  RH  056%=      5-min Rain = 0
KWA1 190827Z 33020KT 07/M01 A3006 RMK A01 T00691012  RH  056%=      5-min Rain = 0
KWA1 190828Z 33020KT 07/M01 A3006 RMK A01 T00691012  RH  056%=      5-min Rain = 0
KWA1 190829Z 33018KT 07/M01 A3006 RMK A01 T00691012  RH  056%=      5-min Rain = 0
KWA1 190830Z 33018KT 07/M01 A3007 RMK A01 T00691011  RH  057%=      5-min Rain = 0
KWA1 190831Z 33019KT 07/M01 A3006 RMK A01 T00681011  RH  057%=      5-min Rain = 0
KWA1 190832Z 33018KT 07/M01 A3007 RMK A01 T00681012  RH  057%=      5-min Rain = 0
KWA1 190833Z 33021KT 07/M01 A3006 RMK A01 T00681011  RH  057%=      5-min Rain = 0
KWA1 190834Z 34021KT 07/M01 A3006 RMK A01 T00681012  RH  057%=      5-min Rain = 0
KWA1 190835Z 34019KT 07/M01 A3006 RMK A01 T00671012  RH  057%=      5-min Rain = 0
KWA1 190836Z 34021KT 07/M01 A3006 RMK A01 T00671011  RH  057%=      5-min Rain = 0
KWA1 190837Z 33019KT 07/M01 A3006 RMK A01 T00671011  RH  057%=      5-min Rain = 0
KWA1 190838Z 33018KT 07/M01 A3006 RMK A01 T00671011  RH  058%=      5-min Rain = 0
KWA1 190839Z 33016KT 07/M01 A3007 RMK A01 T00671010  RH  058%=      5-min Rain = 0
KWA1 190840Z 33014KT 07/M01 A3007 RMK A01 T00671010  RH  058%=      5-min Rain = 0
KWA1 190841Z 33018G23KT 07/M01 A3006 RMK A01 T00671010  RH  058%=      5-min Rain = 0
KWA1 190842Z 33022KT 07/M01 A3006 RMK A01 T00661011  RH  058%=      5-min Rain = 0
KWA1 190843Z 33023KT 07/M01 A3006 RMK A01 T00661013  RH  057%=      5-min Rain = 0
KWA1 190844Z 33021KT 07/M01 A3006 RMK A01 T00671012  RH  057%=      5-min Rain = 0
KWA1 190845Z 33021G26KT 07/M01 A3006 RMK A01 T00671013  RH  057%=      5-min Rain = 0
KWA1 190846Z 33020G25KT 07/M01 A3007 RMK A01 T00671013  RH  057%=      5-min Rain = 0
KWA1 190847Z 32020KT 07/M01 A3006 RMK A01 T00671013  RH  057%=      5-min Rain = 0
KWA1 190848Z 33021G28KT 07/M01 A3007 RMK A01 T00671012  RH  057%=      5-min Rain = 0
KWA1 190849Z 33019G24KT 07/M01 A3007 RMK A01 T00671012  RH  057%=      5-min Rain = 0
KWA1 190850Z 33019G25KT 07/M01 A3007 RMK A01 T00671012  RH  057%=      5-min Rain = 0
KWA1 190851Z 33019G26KT 07/M01 A3007 RMK A01 T00671012  RH  057%=      5-min Rain = 0
KWA1 190852Z 33020KT 07/M01 A3007 RMK A01 T00671011  RH  057%=      5-min Rain = 0
KWA1 190853Z 33020G26KT 07/M01 A3007 RMK A01 T00671011  RH  057%=      5-min Rain = 0
KWA1 190854Z 33021KT 07/M01 A3007 RMK A01 T00671013  RH  057%=      5-min Rain = 0
KWA1 190855Z 33018G23KT 07/M01 A3007 RMK A01 T00671013  RH  057%=      5-min Rain = 0
KWA1 190856Z 33021G26KT 07/M01 A3007 RMK A01 T00671012  RH  057%=      5-min Rain = 0
KWA1 190857Z 33020KT 07/M01 A3007 RMK A01 T00671012  RH  057%=      5-min Rain = 0
KWA1 190858Z 33021KT 07/M01 A3007 RMK A01 T00671013  RH  057%=      5-min Rain = 0
KWA1 190859Z 33017G22KT 07/M01 A3007 RMK A01 T00671012  RH  057%=      5-min Rain = 0
KWA1 190900Z 33020KT 07/M01 A3007 RMK A01 T00671012  RH  057%=      5-min Rain = 0
KWA1 190901Z 33019KT 07/M01 A3007 RMK A01 T00671012  RH  057%=      5-min Rain = 0
KWA1 190902Z 33016KT 07/M01 A3007 RMK A01 T00671011  RH  057%=      5-min Rain = 0
KWA1 190903Z 32016G22KT 07/M01 A3007 RMK A01 T00671010  RH  058%=      5-min Rain = 0
KWA1 190904Z 33019G24KT 07/M01 A3007 RMK A01 T00661011  RH  058%=      5-min Rain = 0
KWA1 190905Z 33018KT 07/M01 A3007 RMK A01 T00661012  RH  057%=      5-min Rain = 0
KWA1 190906Z 32016KT 07/M01 A3007 RMK A01 T00661012  RH  057%=      5-min Rain = 0
KWA1 190907Z 32017KT 07/M01 A3007 RMK A01 T00661011  RH  058%=      5-min Rain = 0
KWA1 190908Z 32019KT 07/M01 A3007 RMK A01 T00661011  RH  058%=      5-min Rain = 0
KWA1 190909Z 33021G26KT 07/M01 A3008 RMK A01 T00661011  RH  058%=      5-min Rain = 0
KWA1 190910Z 33020G25KT 07/M01 A3008 RMK A01 T00661011  RH  058%=      5-min Rain = 0
KWA1 190911Z 33020G25KT 07/M01 A3008 RMK A01 T00661010  RH  058%=      5-min Rain = 0
KWA1 190912Z 32021KT 07/M01 A3008 RMK A01 T00661009  RH  059%=      5-min Rain = 0
KWA1 190913Z 32025KT 07/M01 A3008 RMK A01 T00651009  RH  059%=      5-min Rain = 0
KWA1 190914Z 32023G28KT 06/M01 A3008 RMK A01 T00641009  RH  059%=      5-min Rain = 0
KWA1 190915Z 32019KT 06/M01 A3009 RMK A01 T00641008  RH  060%=      5-min Rain = 0
KWA1 190916Z 32021G26KT 06/M01 A3009 RMK A01 T00631007  RH  061%=      5-min Rain = 0
KWA1 190917Z 32019G25KT 06/M01 A3009 RMK A01 T00621007  RH  061%=      5-min Rain = 0
KWA1 190918Z 32022KT 06/M01 A3009 RMK A01 T00621008  RH  061%=      5-min Rain = 0
KWA1 190919Z 32022G27KT 06/M01 A3009 RMK A01 T00611007  RH  061%=      5-min Rain = 0
KWA1 190920Z 32019KT 06/M01 A3009 RMK A01 T00611008  RH  062%=      5-min Rain = 0
KWA1 190921Z 32024G29KT 06/M01 A3009 RMK A01 T00611007  RH  062%=      5-min Rain = 0
KWA1 190922Z 32024KT 06/M01 A3009 RMK A01 T00601008  RH  062%=      5-min Rain = 0
KWA1 190923Z 32021KT 06/M01 A3009 RMK A01 T00591008  RH  062%=      5-min Rain = 0
KWA1 190924Z 32021KT 06/M01 A301 RMK A01 T00591008  RH  062%=      5-min Rain = 0
KWA1 190925Z 32024KT 06/M01 A301 RMK A01 T00591008  RH  062%=      5-min Rain = 0
KWA1 190926Z 32022KT 06/M01 A301 RMK A01 T00581008  RH  062%=      5-min Rain = 0
KWA1 190927Z 32021KT 06/M01 A301 RMK A01 T00581008  RH  063%=      5-min Rain = 0
KWA1 190928Z 32023KT 06/M01 A301 RMK A01 T00581007  RH  063%=      5-min Rain = 0
KWA1 190929Z 32023KT 06/M01 A301 RMK A01 T00571007  RH  063%=      5-min Rain = 0
KWA1 190930Z 32018KT 06/M01 A301 RMK A01 T00571007  RH  064%=      5-min Rain = 0
KWA1 190931Z 32021G27KT 06/M01 A301 RMK A01 T00571006  RH  064%=      5-min Rain = 0
KWA1 190932Z 32024G29KT 06/M01 A301 RMK A01 T00561006  RH  064%=      5-min Rain = 0
KWA1 190933Z 32024KT 06/M01 A3011 RMK A01 T00561007  RH  064%=      5-min Rain = 0
KWA1 190934Z 32022KT 06/M01 A3011 RMK A01 T00561007  RH  064%=      5-min Rain = 0
KWA1 190935Z 32025G31KT 06/M01 A3011 RMK A01 T00551007  RH  064%=      5-min Rain = 0
KWA1 190936Z 32023KT 06/M01 A3011 RMK A01 T00551007  RH  064%=      5-min Rain = 0
KWA1 190937Z 33020KT 06/M01 A3011 RMK A01 T00551006  RH  065%=      5-min Rain = 0
KWA1 190938Z 32020G27KT 06/M01 A3011 RMK A01 T00551006  RH  065%=      5-min Rain = 0
KWA1 190939Z 32026KT 06/M01 A3011 RMK A01 T00551006  RH  065%=      5-min Rain = 0
KWA1 190940Z 33024KT 05/M01 A3011 RMK A01 T00541006  RH  065%=      5-min Rain = 0
KWA1 190941Z 32023G28KT 05/M01 A3011 RMK A01 T00531006  RH  065%=      5-min Rain = 0
KWA1 190942Z 32019KT 05/M01 A3012 RMK A01 T00531006  RH  066%=      5-min Rain = 0
KWA1 190943Z 32022G27KT 05/M01 A3011 RMK A01 T00531005  RH  066%=      5-min Rain = 0
KWA1 190944Z 32022KT 05/M01 A3011 RMK A01 T00521006  RH  066%=      5-min Rain = 0
KWA1 190945Z 33020G28KT 05/M01 A3012 RMK A01 T00521005  RH  066%=      5-min Rain = 0
KWA1 190946Z 32022G27KT 05/M01 A3012 RMK A01 T00521006  RH  067%=      5-min Rain = 0
KWA1 190947Z 32027KT 05/M01 A3012 RMK A01 T00511006  RH  067%=      5-min Rain = 0
KWA1 190948Z 33024KT 05/M01 A3012 RMK A01 T00501006  RH  067%=      5-min Rain = 0
KWA1 190949Z 32021G28KT 05/M01 A3012 RMK A01 T00501006  RH  067%=      5-min Rain = 0
KWA1 190950Z 32023G28KT 05/M01 A3012 RMK A01 T00501006  RH  067%=      5-min Rain = 0
KWA1 190951Z 33022G30KT 05/M01 A3012 RMK A01 T00491006  RH  067%=      5-min Rain = 0
KWA1 190952Z 33018G24KT 05/M01 A3013 RMK A01 T00491006  RH  068%=      5-min Rain = 0
KWA1 190953Z 33023G29KT 05/M01 A3013 RMK A01 T00491006  RH  068%=      5-min Rain = 0
KWA1 190954Z 33022KT 05/M01 A3013 RMK A01 T00491006  RH  068%=      5-min Rain = 0
KWA1 190955Z 33021KT 05/M01 A3013 RMK A01 T00481006  RH  068%=      5-min Rain = 0
KWA1 190956Z 33023KT 05/M01 A3013 RMK A01 T00481006  RH  068%=      5-min Rain = 0
KWA1 190957Z 33020KT 05/M01 A3013 RMK A01 T00481006  RH  068%=      5-min Rain = 0
KWA1 190958Z 33021KT 05/M01 A3013 RMK A01 T00481005  RH  068%=      5-min Rain = 0
KWA1 190959Z 33018G25KT 05/M01 A3013 RMK A01 T00481006  RH  068%=      5-min Rain = 0
KWA1 191000Z 33019KT 05/M01 A3013 RMK A01 T00481005  RH  069%=      5-min Rain = 0
KWA1 191001Z 33016KT 05/M01 A3013 RMK A01 T00481005  RH  069%=      5-min Rain = 0
KWA1 191002Z 32017KT 05/M00 A3013 RMK A01 T00481004  RH  069%=      5-min Rain = 0
KWA1 191003Z 33018KT 05/M00 A3014 RMK A01 T00481004  RH  069%=      5-min Rain = 0
KWA1 191004Z 33021KT 05/M01 A3014 RMK A01 T00471005  RH  069%=      5-min Rain = 0
KWA1 191005Z 33021KT 05/M00 A3014 RMK A01 T00471004  RH  069%=      5-min Rain = 0
KWA1 191006Z 33022KT 05/M01 A3014 RMK A01 T00471005  RH  069%=      5-min Rain = 0
KWA1 191007Z 33019KT 05/M01 A3014 RMK A01 T00471006  RH  069%=      5-min Rain = 0
KWA1 191008Z 32017G22KT 05/M01 A3014 RMK A01 T00471005  RH  069%=      5-min Rain = 0
KWA1 191009Z 33017KT 05/M01 A3014 RMK A01 T00461005  RH  069%=      5-min Rain = 0
KWA1 191010Z 33015KT 05/M00 A3014 RMK A01 T00461004  RH  070%=      5-min Rain = 0
KWA1 191011Z 33016KT 05/M00 A3014 RMK A01 T00461004  RH  070%=      5-min Rain = 0
KWA1 191012Z 32015G21KT 05/M00 A3014 RMK A01 T00461004  RH  070%=      5-min Rain = 0
KWA1 191013Z 32020KT 05/M00 A3014 RMK A01 T00461004  RH  070%=      5-min Rain = 0
KWA1 191014Z 32020KT 05/M01 A3014 RMK A01 T00461005  RH  070%=      5-min Rain = 0
KWA1 191015Z 33018G24KT 05/M01 A3015 RMK A01 T00461005  RH  070%=      5-min Rain = 0
KWA1 191016Z 33019G24KT 05/M00 A3015 RMK A01 T00461004  RH  070%=      5-min Rain = 0
KWA1 191017Z 33019G25KT 05/M01 A3015 RMK A01 T00451005  RH  070%=      5-min Rain = 0
KWA1 191018Z 32022KT 05/M01 A3015 RMK A01 T00451005  RH  070%=      5-min Rain = 0
KWA1 191019Z 32022KT 04/M01 A3015 RMK A01 T00441006  RH  070%=      5-min Rain = 0
KWA1 191020Z 32021KT 04/M01 A3015 RMK A01 T00441006  RH  070%=      5-min Rain = 0
KWA1 191021Z 33021KT 04/M01 A3015 RMK A01 T00441006  RH  070%=      5-min Rain = 0
KWA1 191022Z 33017G22KT 04/M01 A3015 RMK A01 T00441006  RH  070%=      5-min Rain = 0
KWA1 191023Z 33016G22KT 04/M01 A3015 RMK A01 T00441005  RH  070%=      5-min Rain = 0
KWA1 191024Z 33016KT 04/M01 A3015 RMK A01 T00441005  RH  070%=      5-min Rain = 0
KWA1 191025Z 33017KT 04/M01 A3015 RMK A01 T00441007  RH  070%=      5-min Rain = 0
KWA1 191026Z 33017KT 04/M01 A3015 RMK A01 T00431007  RH  070%=      5-min Rain = 0
KWA1 191027Z 33019KT 04/M01 A3015 RMK A01 T00431007  RH  070%=      5-min Rain = 0
KWA1 191028Z 33023G28KT 04/M01 A3015 RMK A01 T00421009  RH  069%=      5-min Rain = 0
KWA1 191029Z 33024KT 04/M01 A3015 RMK A01 T00421011  RH  069%=      5-min Rain = 0
KWA1 191030Z 34022KT 04/M01 A3015 RMK A01 T00421012  RH  068%=      5-min Rain = 0
KWA1 191031Z 33023KT 04/M01 A3015 RMK A01 T00421012  RH  068%=      5-min Rain = 0
KWA1 191032Z 33020G26KT 04/M01 A3015 RMK A01 T00411012  RH  068%=      5-min Rain = 0
KWA1 191033Z 34022KT 04/M01 A3015 RMK A01 T00411012  RH  068%=      5-min Rain = 0
KWA1 191034Z 34019KT 04/M01 A3016 RMK A01 T00411012  RH  068%=      5-min Rain = 0
KWA1 191035Z 33018G24KT 04/M01 A3016 RMK A01 T00401013  RH  069%=      5-min Rain = 0
KWA1 191036Z 34020G25KT 04/M01 A3016 RMK A01 T00401013  RH  069%=      5-min Rain = 0
KWA1 191037Z 34017G22KT 04/M01 A3016 RMK A01 T00401012  RH  069%=      5-min Rain = 0
KWA1 191038Z 34018G23KT 04/M01 A3016 RMK A01 T00391013  RH  069%=      5-min Rain = 0
KWA1 191039Z 33020KT 04/M01 A3016 RMK A01 T00391013  RH  069%=      5-min Rain = 0
KWA1 191040Z 33016KT 04/M01 A3016 RMK A01 T00391013  RH  069%=      5-min Rain = 0
KWA1 191041Z 34020KT 04/M01 A3016 RMK A01 T00391013  RH  069%=      5-min Rain = 0
KWA1 191042Z 34020KT 04/M01 A3016 RMK A01 T00381013  RH  069%=      5-min Rain = 0
KWA1 191043Z 33015KT 04/M01 A3016 RMK A01 T00391013  RH  069%=      5-min Rain = 0
KWA1 191044Z 34016KT 04/M01 A3016 RMK A01 T00381013  RH  069%=      5-min Rain = 0
KWA1 191045Z 34017KT 04/M01 A3016 RMK A01 T00381013  RH  069%=      5-min Rain = 0
KWA1 191046Z 34018KT 04/M01 A3016 RMK A01 T00381013  RH  069%=      5-min Rain = 0
KWA1 191047Z 34017KT 04/M01 A3016 RMK A01 T00381013  RH  069%=      5-min Rain = 0
KWA1 191048Z 34016KT 04/M01 A3016 RMK A01 T00381013  RH  069%=      5-min Rain = 0
KWA1 191049Z 33015KT 04/M01 A3016 RMK A01 T00371013  RH  070%=      5-min Rain = 0
KWA1 191050Z 34013KT 04/M01 A3016 RMK A01 T00371013  RH  070%=      5-min Rain = 0
KWA1 191051Z 33015KT 04/M01 A3016 RMK A01 T00361013  RH  070%=      5-min Rain = 0
KWA1 191052Z 34014KT 04/M01 A3016 RMK A01 T00361012  RH  070%=      5-min Rain = 0
KWA1 191053Z 34014KT 04/M01 A3016 RMK A01 T00361012  RH  070%=      5-min Rain = 0
KWA1 191054Z 34012KT 04/M01 A3016 RMK A01 T00361013  RH  071%=      5-min Rain = 0
KWA1 191055Z 33013KT 04/M01 A3016 RMK A01 T00361013  RH  071%=      5-min Rain = 0
KWA1 191056Z 34013KT 04/M01 A3016 RMK A01 T00351013  RH  071%=      5-min Rain = 0
KWA1 191057Z 33013KT 04/M01 A3016 RMK A01 T00351013  RH  071%=      5-min Rain = 0
KWA1 191058Z 33014KT 04/M01 A3016 RMK A01 T00351012  RH  071%=      5-min Rain = 0
KWA1 191059Z 33013KT 04/M01 A3016 RMK A01 T00351013  RH  071%=      5-min Rain = 0
KWA1 191100Z 33013KT 04/M01 A3016 RMK A01 T00351012  RH  071%=      5-min Rain = 0
KWA1 191101Z 33011KT 04/M01 A3016 RMK A01 T00351012  RH  071%=      5-min Rain = 0
KWA1 191102Z 33012KT 04/M01 A3016 RMK A01 T00351012  RH  071%=      5-min Rain = 0
KWA1 191103Z 33013KT 04/M01 A3016 RMK A01 T00351012  RH  071%=      5-min Rain = 0
KWA1 191104Z 33012KT 04/M01 A3016 RMK A01 T00351012  RH  071%=      5-min Rain = 0
KWA1 191105Z 33009KT 04/M01 A3016 RMK A01 T00351012  RH  071%=      5-min Rain = 0
KWA1 191106Z 33011KT 03/M01 A3016 RMK A01 T00341012  RH  072%=      5-min Rain = 0
KWA1 191107Z 33011KT 03/M01 A3016 RMK A01 T00341012  RH  072%=      5-min Rain = 0
KWA1 191108Z 33009KT 03/M01 A3017 RMK A01 T00341012  RH  072%=      5-min Rain = 0
KWA1 191109Z 33008KT 03/M01 A3017 RMK A01 T00341011  RH  072%=      5-min Rain = 0
KWA1 191110Z 33010KT 03/M01 A3017 RMK A01 T00341011  RH  072%=      5-min Rain = 0
KWA1 191111Z 33010KT 03/M01 A3017 RMK A01 T00341011  RH  073%=      5-min Rain = 0
KWA1 191112Z 33010KT 03/M01 A3017 RMK A01 T00341011  RH  073%=      5-min Rain = 0
KWA1 191113Z 33011KT 03/M01 A3017 RMK A01 T00341011  RH  073%=      5-min Rain = 0
KWA1 191114Z 33011KT 03/M01 A3017 RMK A01 T00341010  RH  073%=      5-min Rain = 0
KWA1 191115Z 33011KT 03/M01 A3017 RMK A01 T00341010  RH  073%=      5-min Rain = 0
KWA1 191116Z 32010KT 04/M01 A3017 RMK A01 T00351010  RH  073%=      5-min Rain = 0
KWA1 191117Z 33009KT 04/M01 A3017 RMK A01 T00351009  RH  073%=      5-min Rain = 0
KWA1 191118Z 33009KT 04/M01 A3017 RMK A01 T00351009  RH  073%=      5-min Rain = 0
KWA1 191119Z 33008KT 03/M01 A3017 RMK A01 T00341010  RH  073%=      5-min Rain = 0
KWA1 191120Z 33009KT 03/M01 A3017 RMK A01 T00341009  RH  073%=      5-min Rain = 0
KWA1 191121Z 33009KT 03/M01 A3017 RMK A01 T00331009  RH  074%=      5-min Rain = 0
KWA1 191122Z 32009KT 03/M01 A3017 RMK A01 T00341009  RH  074%=      5-min Rain = 0
KWA1 191123Z 32009KT 03/M01 A3017 RMK A01 T00341008  RH  074%=      5-min Rain = 0
KWA1 191124Z 33009KT 03/M01 A3017 RMK A01 T00341008  RH  074%=      5-min Rain = 0
KWA1 191125Z 32009KT 03/M01 A3017 RMK A01 T00341008  RH  074%=      5-min Rain = 0
KWA1 191126Z 32008KT 04/M01 A3017 RMK A01 T00351007  RH  074%=      5-min Rain = 0
KWA1 191127Z 33009KT 04/M01 A3017 RMK A01 T00361007  RH  074%=      5-min Rain = 0
KWA1 191128Z 33007KT 04/M01 A3017 RMK A01 T00361007  RH  074%=      5-min Rain = 0
KWA1 191129Z 33008KT 04/M01 A3017 RMK A01 T00361006  RH  074%=      5-min Rain = 0
KWA1 191130Z 32009KT 04/M01 A3017 RMK A01 T00361006  RH  074%=      5-min Rain = 0
KWA1 191131Z 32008KT 04/M01 A3017 RMK A01 T00371006  RH  074%=      5-min Rain = 0
KWA1 191132Z 32008KT 04/M01 A3017 RMK A01 T00371005  RH  074%=      5-min Rain = 0
KWA1 191133Z 32008KT 04/M01 A3017 RMK A01 T00381005  RH  074%=      5-min Rain = 0
KWA1 191134Z 32008KT 04/M01 A3017 RMK A01 T00381006  RH  073%=      5-min Rain = 0
KWA1 191135Z 32009KT 04/M01 A3017 RMK A01 T00381006  RH  073%=      5-min Rain = 0
KWA1 191136Z 32007KT 04/M01 A3017 RMK A01 T00381005  RH  073%=      5-min Rain = 0
KWA1 191137Z 32008KT 04/M01 A3018 RMK A01 T00391005  RH  073%=      5-min Rain = 0
KWA1 191138Z 32009KT 04/M01 A3018 RMK A01 T00391005  RH  073%=      5-min Rain = 0
KWA1 191139Z 32009KT 04/M01 A3018 RMK A01 T00391005  RH  073%=      5-min Rain = 0
KWA1 191140Z 32008KT 04/M01 A3017 RMK A01 T00391005  RH  073%=      5-min Rain = 0
KWA1 191141Z 32009KT 04/M01 A3017 RMK A01 T00401005  RH  073%=      5-min Rain = 0
KWA1 191142Z 31008KT 04/M01 A3018 RMK A01 T00401005  RH  072%=      5-min Rain = 0
KWA1 191143Z 31009KT 04/M01 A3018 RMK A01 T00401005  RH  072%=      5-min Rain = 0
KWA1 191144Z 31009KT 04/M01 A3018 RMK A01 T00401005  RH  072%=      5-min Rain = 0
KWA1 191145Z 31008KT 04/M01 A3018 RMK A01 T00401005  RH  072%=      5-min Rain = 0
KWA1 191146Z 31008KT 04/M01 A3017 RMK A01 T00401005  RH  072%=      5-min Rain = 0
KWA1 191147Z 31009KT 04/M01 A3018 RMK A01 T00401005  RH  072%=      5-min Rain = 0
KWA1 191148Z 31008KT 04/M01 A3018 RMK A01 T00401005  RH  072%=      5-min Rain = 0
KWA1 191149Z 31008KT 04/M01 A3018 RMK A01 T00401005  RH  072%=      5-min Rain = 0
KWA1 191150Z 31008KT 04/M01 A3018 RMK A01 T00401005  RH  073%=      5-min Rain = 0
KWA1 191151Z 31008KT 04/M01 A3018 RMK A01 T00401005  RH  072%=      5-min Rain = 0
KWA1 191152Z 31008KT 04/M01 A3018 RMK A01 T00411005  RH  072%=      5-min Rain = 0
KWA1 191153Z 31007KT 04/M00 A3018 RMK A01 T00411004  RH  072%=      5-min Rain = 0
KWA1 191154Z 31007KT 04/M00 A3018 RMK A01 T00411004  RH  072%=      5-min Rain = 0
KWA1 191155Z 31008KT 04/M00 A3018 RMK A01 T00411004  RH  072%=      5-min Rain = 0
KWA1 191156Z 32008KT 04/M00 A3018 RMK A01 T00411004  RH  072%=      5-min Rain = 0
KWA1 191157Z 31007KT 04/M01 A3018 RMK A01 T00411005  RH  072%=      5-min Rain = 0
KWA1 191158Z 31009KT 04/M01 A3018 RMK A01 T00411005  RH  072%=      5-min Rain = 0
KWA1 191159Z 31007KT 04/M01 A3018 RMK A01 T00421005  RH  072%=      5-min Rain = 0
KWA1 191200Z 31008KT 04/M01 A3018 RMK A01 T00421005  RH  072%=      5-min Rain = 0
KWA1 191201Z 31007KT 04/M01 A3018 RMK A01 T00421005  RH  072%=      5-min Rain = 0
KWA1 191202Z 31008KT 04/M01 A3018 RMK A01 T00421005  RH  072%=      5-min Rain = 0
KWA1 191203Z 31007KT 04/M00 A3018 RMK A01 T00421004  RH  072%=      5-min Rain = 0
KWA1 191204Z 31008KT 04/M00 A3018 RMK A01 T00421004  RH  072%=      5-min Rain = 0
KWA1 191205Z 31010KT 04/M00 A3018 RMK A01 T00431004  RH  072%=      5-min Rain = 0
KWA1 191206Z 31010KT 04/M01 A3018 RMK A01 T00431006  RH  070%=      5-min Rain = 0
KWA1 191207Z 31010KT 04/M01 A3018 RMK A01 T00441006  RH  070%=      5-min Rain = 0
KWA1 191208Z 31011KT 04/M01 A3018 RMK A01 T00441007  RH  069%=      5-min Rain = 0
KWA1 191209Z 32009KT 05/M01 A3018 RMK A01 T00451007  RH  069%=      5-min Rain = 0
KWA1 191210Z 32011KT 05/M01 A3018 RMK A01 T00461006  RH  069%=      5-min Rain = 0
KWA1 191211Z 32010KT 05/M01 A3018 RMK A01 T00461007  RH  069%=      5-min Rain = 0
KWA1 191212Z 32012KT 05/M01 A3019 RMK A01 T00471007  RH  068%=      5-min Rain = 0
KWA1 191213Z 32009KT 05/M01 A3019 RMK A01 T00471007  RH  068%=      5-min Rain = 0
KWA1 191214Z 32010KT 05/M01 A3019 RMK A01 T00471006  RH  069%=      5-min Rain = 0
KWA1 191215Z 32011KT 05/M01 A3019 RMK A01 T00471006  RH  068%=      5-min Rain = 0
KWA1 191216Z 32010KT 05/M01 A3019 RMK A01 T00481006  RH  068%=      5-min Rain = 0
KWA1 191217Z 32012KT 05/M01 A3019 RMK A01 T00481006  RH  068%=      5-min Rain = 0
KWA1 191218Z 32011KT 05/M01 A3019 RMK A01 T00481006  RH  068%=      5-min Rain = 0
KWA1 191219Z 32011KT 05/M01 A3019 RMK A01 T00481006  RH  068%=      5-min Rain = 0
KWA1 191220Z 32012KT 05/M01 A3019 RMK A01 T00481007  RH  067%=      5-min Rain = 0
KWA1 191221Z 31011KT 05/M01 A3019 RMK A01 T00481008  RH  067%=      5-min Rain = 0
KWA1 191222Z 32011KT 05/M01 A3019 RMK A01 T00481008  RH  067%=      5-min Rain = 0
KWA1 191223Z 32012KT 05/M01 A3019 RMK A01 T00481008  RH  067%=      5-min Rain = 0
KWA1 191224Z 32012KT 05/M01 A3019 RMK A01 T00481008  RH  067%=      5-min Rain = 0
KWA1 191225Z 32012KT 05/M01 A3019 RMK A01 T00481009  RH  067%=      5-min Rain = 0
KWA1 191226Z 33010KT 05/M01 A3019 RMK A01 T00481009  RH  067%=      5-min Rain = 0
KWA1 191227Z 32012KT 05/M01 A3019 RMK A01 T00471009  RH  067%=      5-min Rain = 0
KWA1 191228Z 32012KT 05/M01 A3019 RMK A01 T00461010  RH  067%=      5-min Rain = 0
KWA1 191229Z 32012KT 05/M01 A302 RMK A01 T00461010  RH  067%=      5-min Rain = 0
KWA1 191230Z 32013KT 05/M01 A302 RMK A01 T00461011  RH  067%=      5-min Rain = 0
KWA1 191231Z 32014KT 05/M01 A302 RMK A01 T00461011  RH  066%=      5-min Rain = 0
KWA1 191232Z 32013KT 05/M01 A302 RMK A01 T00461012  RH  066%=      5-min Rain = 0
KWA1 191233Z 32011KT 05/M01 A302 RMK A01 T00461011  RH  066%=      5-min Rain = 0
KWA1 191234Z 32010KT 05/M01 A302 RMK A01 T00461010  RH  067%=      5-min Rain = 0
KWA1 191235Z 31009KT 05/M01 A302 RMK A01 T00451010  RH  067%=      5-min Rain = 0
KWA1 191236Z 32011KT 05/M01 A302 RMK A01 T00451010  RH  068%=      5-min Rain = 0
KWA1 191237Z 31010KT 04/M01 A302 RMK A01 T00441010  RH  068%=      5-min Rain = 0
KWA1 191238Z 31012KT 05/M01 A302 RMK A01 T00451010  RH  068%=      5-min Rain = 0
KWA1 191239Z 32013KT 05/M01 A302 RMK A01 T00451010  RH  067%=      5-min Rain = 0
KWA1 191240Z 32013KT 05/M01 A302 RMK A01 T00451011  RH  067%=      5-min Rain = 0
KWA1 191241Z 32014KT 04/M01 A302 RMK A01 T00441012  RH  067%=      5-min Rain = 0
KWA1 191242Z 32015KT 04/M01 A302 RMK A01 T00441012  RH  067%=      5-min Rain = 0
KWA1 191243Z 32014KT 05/M01 A3021 RMK A01 T00451012  RH  066%=      5-min Rain = 0
KWA1 191244Z 33013KT 05/M01 A3021 RMK A01 T00451012  RH  067%=      5-min Rain = 0
KWA1 191245Z 32013KT 04/M01 A3021 RMK A01 T00441012  RH  067%=      5-min Rain = 0
KWA1 191246Z 30015KT 04/M01 A3021 RMK A01 T00431013  RH  067%=      5-min Rain = 0
KWA1 191247Z 31013KT 04/M01 A3021 RMK A01 T00431014  RH  067%=      5-min Rain = 0
KWA1 191248Z 31012KT 04/M01 A3021 RMK A01 T00431013  RH  067%=      5-min Rain = 0
KWA1 191249Z 32014KT 04/M01 A3021 RMK A01 T00421013  RH  067%=      5-min Rain = 0
KWA1 191250Z 32014KT 04/M01 A3021 RMK A01 T00421013  RH  067%=      5-min Rain = 0
KWA1 191251Z 32011KT 04/M01 A3021 RMK A01 T00421013  RH  067%=      5-min Rain = 0
KWA1 191252Z 32010KT 04/M01 A3021 RMK A01 T00411014  RH  068%=      5-min Rain = 0
KWA1 191253Z 31012KT 04/M01 A3021 RMK A01 T00401014  RH  068%=      5-min Rain = 0
KWA1 191254Z 32013KT 04/M01 A3021 RMK A01 T00401014  RH  068%=      5-min Rain = 0
KWA1 191255Z 32014KT 04/M02 A3021 RMK A01 T00401015  RH  067%=      5-min Rain = 0
KWA1 191256Z 32014KT 04/M02 A3021 RMK A01 T00401016  RH  067%=      5-min Rain = 0
KWA1 191257Z 32011KT 04/M02 A3021 RMK A01 T00401016  RH  067%=      5-min Rain = 0
KWA1 191258Z 32012KT 04/M02 A3021 RMK A01 T00391015  RH  068%=      5-min Rain = 0
KWA1 191259Z 32012KT 04/M02 A3021 RMK A01 T00381016  RH  068%=      5-min Rain = 0
KWA1 191300Z 33012KT 04/M02 A3021 RMK A01 T00381015  RH  068%=      5-min Rain = 0
KWA1 191301Z 32014KT 04/M02 A3021 RMK A01 T00371016  RH  068%=      5-min Rain = 0
KWA1 191302Z 32013KT 04/M02 A3021 RMK A01 T00381017  RH  068%=      5-min Rain = 0
KWA1 191303Z 32013KT 04/M02 A3022 RMK A01 T00381016  RH  068%=      5-min Rain = 0
KWA1 191304Z 32016KT 04/M02 A3021 RMK A01 T00381017  RH  068%=      5-min Rain = 0
KWA1 191305Z 32013KT 04/M02 A3022 RMK A01 T00391017  RH  067%=      5-min Rain = 0
KWA1 191306Z 32012KT 04/M02 A3022 RMK A01 T00391017  RH  067%=      5-min Rain = 0
KWA1 191307Z 32012KT 04/M02 A3022 RMK A01 T00371017  RH  068%=      5-min Rain = 0
KWA1 191308Z 32011KT 04/M02 A3022 RMK A01 T00371017  RH  068%=      5-min Rain = 0
KWA1 191309Z 32012KT 04/M02 A3022 RMK A01 T00361016  RH  069%=      5-min Rain = 0
KWA1 191310Z 32013KT 04/M02 A3022 RMK A01 T00351016  RH  069%=      5-min Rain = 0
KWA1 191311Z 33016KT 04/M02 A3022 RMK A01 T00351016  RH  069%=      5-min Rain = 0
KWA1 191312Z 32019KT 04/M02 A3022 RMK A01 T00361019  RH  067%=      5-min Rain = 0
KWA1 191313Z 33018KT 04/M02 A3022 RMK A01 T00381019  RH  066%=      5-min Rain = 0
KWA1 191314Z 32015KT 04/M02 A3022 RMK A01 T00381020  RH  066%=      5-min Rain = 0
KWA1 191315Z 33015KT 04/M02 A3022 RMK A01 T00381019  RH  066%=      5-min Rain = 0
KWA1 191316Z 33016KT 04/M02 A3022 RMK A01 T00371019  RH  066%=      5-min Rain = 0
KWA1 191317Z 33016KT 04/M02 A3022 RMK A01 T00371020  RH  067%=      5-min Rain = 0
KWA1 191318Z 33016KT 04/M02 A3022 RMK A01 T00371020  RH  066%=      5-min Rain = 0
KWA1 191319Z 33017KT 04/M02 A3022 RMK A01 T00371021  RH  066%=      5-min Rain = 0
KWA1 191320Z 33018G23KT 04/M02 A3022 RMK A01 T00371022  RH  066%=      5-min Rain = 0
KWA1 191321Z 33019KT 04/M02 A3022 RMK A01 T00371022  RH  065%=      5-min Rain = 0
KWA1 191322Z 33017KT 04/M02 A3022 RMK A01 T00371022  RH  065%=      5-min Rain = 0
KWA1 191323Z 33015KT 04/M02 A3022 RMK A01 T00371022  RH  065%=      5-min Rain = 0
KWA1 191324Z 33015KT 04/M02 A3022 RMK A01 T00361021  RH  066%=      5-min Rain = 0
KWA1 191325Z 33015KT 04/M02 A3022 RMK A01 T00361021  RH  066%=      5-min Rain = 0
KWA1 191326Z 33014KT 04/M02 A3022 RMK A01 T00351021  RH  067%=      5-min Rain = 0
KWA1 191327Z 33013KT 03/M02 A3022 RMK A01 T00341021  RH  067%=      5-min Rain = 0
KWA1 191328Z 32012KT 03/M02 A3022 RMK A01 T00331021  RH  068%=      5-min Rain = 0
KWA1 191329Z 32013KT 03/M02 A3022 RMK A01 T00331020  RH  068%=      5-min Rain = 0
KWA1 191330Z 32013KT 03/M02 A3023 RMK A01 T00321020  RH  068%=      5-min Rain = 0
KWA1 191331Z 32013KT 03/M02 A3023 RMK A01 T00321020  RH  069%=      5-min Rain = 0
KWA1 191332Z 33013KT 03/M02 A3023 RMK A01 T00311020  RH  069%=      5-min Rain = 0
KWA1 191333Z 32013KT 03/M02 A3023 RMK A01 T00311020  RH  069%=      5-min Rain = 0
KWA1 191334Z 33016KT 03/M02 A3023 RMK A01 T00311021  RH  069%=      5-min Rain = 0
KWA1 191335Z 33014G19KT 03/M02 A3023 RMK A01 T00321022  RH  068%=      5-min Rain = 0
KWA1 191336Z 32015G20KT 03/M02 A3023 RMK A01 T00331022  RH  067%=      5-min Rain = 0
KWA1 191337Z 33018KT 03/M02 A3023 RMK A01 T00331022  RH  067%=      5-min Rain = 0
KWA1 191338Z 33016KT 03/M02 A3023 RMK A01 T00331023  RH  067%=      5-min Rain = 0
KWA1 191339Z 33015KT 03/M02 A3023 RMK A01 T00341023  RH  067%=      5-min Rain = 0
KWA1 191340Z 33014KT 03/M02 A3023 RMK A01 T00331022  RH  067%=      5-min Rain = 0
KWA1 191341Z 33014KT 03/M02 A3023 RMK A01 T00321022  RH  067%=      5-min Rain = 0
KWA1 191342Z 33014KT 03/M02 A3023 RMK A01 T00321022  RH  068%=      5-min Rain = 0
KWA1 191343Z 33017KT 03/M02 A3023 RMK A01 T00311023  RH  067%=      5-min Rain = 0
KWA1 191344Z 33015KT 03/M02 A3023 RMK A01 T00321024  RH  067%=      5-min Rain = 0
KWA1 191345Z 33017KT 03/M02 A3023 RMK A01 T00321023  RH  067%=      5-min Rain = 0
KWA1 191346Z 33017KT 03/M02 A3023 RMK A01 T00321024  RH  067%=      5-min Rain = 0
KWA1 191347Z 33015KT 03/M02 A3024 RMK A01 T00321024  RH  066%=      5-min Rain = 0
KWA1 191348Z 34015KT 03/M02 A3024 RMK A01 T00321024  RH  067%=      5-min Rain = 0
KWA1 191349Z 33014KT 03/M02 A3024 RMK A01 T00321024  RH  067%=      5-min Rain = 0
KWA1 191350Z 33013G18KT 03/M02 A3024 RMK A01 T00321023  RH  067%=      5-min Rain = 0
KWA1 191351Z 33014KT 03/M02 A3024 RMK A01 T00311024  RH  067%=      5-min Rain = 0
KWA1 191352Z 33014KT 03/M02 A3024 RMK A01 T00311024  RH  067%=      5-min Rain = 0
KWA1 191353Z 33013KT 03/M03 A3024 RMK A01 T00321025  RH  066%=      5-min Rain = 0
KWA1 191354Z 33014KT 03/M03 A3024 RMK A01 T00321025  RH  066%=      5-min Rain = 0
KWA1 191355Z 34016KT 03/M03 A3024 RMK A01 T00321025  RH  066%=      5-min Rain = 0
KWA1 191356Z 33014KT 03/M03 A3024 RMK A01 T00321025  RH  066%=      5-min Rain = 0
KWA1 191357Z 33016KT 03/M03 A3024 RMK A01 T00331025  RH  066%=      5-min Rain = 0
KWA1 191358Z 33015KT 03/M03 A3024 RMK A01 T00331025  RH  066%=      5-min Rain = 0
KWA1 191359Z 33015KT 03/M03 A3025 RMK A01 T00331026  RH  065%=      5-min Rain = 0
KWA1 191400Z 33014KT 03/M03 A3025 RMK A01 T00341026  RH  065%=      5-min Rain = 0
KWA1 191401Z 33013KT 03/M03 A3025 RMK A01 T00341025  RH  065%=      5-min Rain = 0
KWA1 191402Z 33014KT 03/M03 A3025 RMK A01 T00341025  RH  065%=      5-min Rain = 0
KWA1 191403Z 33012KT 03/M03 A3025 RMK A01 T00341025  RH  066%=      5-min Rain = 0
KWA1 191404Z 33012KT 03/M03 A3025 RMK A01 T00331025  RH  066%=      5-min Rain = 0
KWA1 191405Z 33011KT 03/M02 A3025 RMK A01 T00331024  RH  066%=      5-min Rain = 0
KWA1 191406Z 33013KT 03/M02 A3025 RMK A01 T00331024  RH  066%=      5-min Rain = 0
KWA1 191407Z 32011KT 03/M02 A3025 RMK A01 T00331024  RH  066%=      5-min Rain = 0
KWA1 191408Z 32012KT 03/M02 A3025 RMK A01 T00331024  RH  067%=      5-min Rain = 0
KWA1 191409Z 32013KT 03/M02 A3025 RMK A01 T00331024  RH  066%=      5-min Rain = 0
KWA1 191410Z 32013KT 03/M02 A3026 RMK A01 T00331024  RH  066%=      5-min Rain = 0
KWA1 191411Z 32012KT 03/M02 A3026 RMK A01 T00331024  RH  066%=      5-min Rain = 0
KWA1 191412Z 32013KT 03/M02 A3026 RMK A01 T00331024  RH  066%=      5-min Rain = 0
KWA1 191413Z 32015KT 03/M02 A3026 RMK A01 T00331024  RH  066%=      5-min Rain = 0
KWA1 191414Z 32013KT 03/M03 A3026 RMK A01 T00341025  RH  066%=      5-min Rain = 0
KWA1 191415Z 32015KT 03/M02 A3026 RMK A01 T00341024  RH  066%=      5-min Rain = 0
KWA1 191416Z 32014KT 03/M02 A3026 RMK A01 T00341024  RH  065%=      5-min Rain = 0
KWA1 191417Z 32014KT 04/M03 A3026 RMK A01 T00351025  RH  065%=      5-min Rain = 0
KWA1 191418Z 32017KT 04/M03 A3026 RMK A01 T00351025  RH  065%=      5-min Rain = 0
KWA1 191419Z 33015KT 04/M03 A3026 RMK A01 T00351025  RH  065%=      5-min Rain = 0
KWA1 191420Z 32013KT 04/M03 A3026 RMK A01 T00351025  RH  065%=      5-min Rain = 0
KWA1 191421Z 32012KT 04/M02 A3026 RMK A01 T00351024  RH  065%=      5-min Rain = 0
KWA1 191422Z 32013KT 04/M02 A3026 RMK A01 T00351024  RH  065%=      5-min Rain = 0
KWA1 191423Z 32014KT 04/M02 A3027 RMK A01 T00351024  RH  065%=      5-min Rain = 0
KWA1 191424Z 32013KT 04/M02 A3027 RMK A01 T00351024  RH  065%=      5-min Rain = 0
KWA1 191425Z 32014KT 04/M02 A3027 RMK A01 T00361023  RH  065%=      5-min Rain = 0
KWA1 191426Z 32015KT 04/M03 A3027 RMK A01 T00361025  RH  065%=      5-min Rain = 0
KWA1 191427Z 32016KT 04/M03 A3027 RMK A01 T00361025  RH  064%=      5-min Rain = 0
KWA1 191428Z 32015KT 04/M03 A3027 RMK A01 T00361026  RH  064%=      5-min Rain = 0
KWA1 191429Z 32015G21KT 04/M03 A3027 RMK A01 T00371026  RH  064%=      5-min Rain = 0
KWA1 191430Z 32020KT 04/M03 A3027 RMK A01 T00371026  RH  063%=      5-min Rain = 0
KWA1 191431Z 33017KT 04/M03 A3027 RMK A01 T00371027  RH  063%=      5-min Rain = 0
KWA1 191432Z 32015KT 04/M03 A3027 RMK A01 T00371026  RH  063%=      5-min Rain = 0
KWA1 191433Z 33013KT 04/M03 A3027 RMK A01 T00371025  RH  063%=      5-min Rain = 0
KWA1 191434Z 32013KT 04/M02 A3027 RMK A01 T00381024  RH  064%=      5-min Rain = 0
KWA1 191435Z 32011KT 04/M02 A3028 RMK A01 T00381023  RH  064%=      5-min Rain = 0
KWA1 191436Z 33013KT 04/M02 A3028 RMK A01 T00391023  RH  064%=      5-min Rain = 0
KWA1 191437Z 32012KT 04/M02 A3028 RMK A01 T00391024  RH  064%=      5-min Rain = 0
KWA1 191438Z 32014KT 04/M02 A3028 RMK A01 T00391024  RH  064%=      5-min Rain = 0
KWA1 191439Z 32012G18KT 04/M03 A3028 RMK A01 T00391025  RH  063%=      5-min Rain = 0
KWA1 191440Z 32015KT 04/M03 A3028 RMK A01 T00391025  RH  063%=      5-min Rain = 0
KWA1 191441Z 32015KT 04/M03 A3028 RMK A01 T00391025  RH  063%=      5-min Rain = 0
KWA1 191442Z 32015KT 04/M03 A3028 RMK A01 T00391025  RH  063%=      5-min Rain = 0
KWA1 191443Z 32013KT 04/M03 A3028 RMK A01 T00391025  RH  063%=      5-min Rain = 0
KWA1 191444Z 32013KT 04/M02 A3028 RMK A01 T00391024  RH  063%=      5-min Rain = 0
KWA1 191445Z 32014KT 04/M02 A3028 RMK A01 T00391024  RH  063%=      5-min Rain = 0
KWA1 191446Z 33017KT 04/M03 A3028 RMK A01 T00401025  RH  063%=      5-min Rain = 0
KWA1 191447Z 32017G23KT 04/M03 A3028 RMK A01 T00401026  RH  062%=      5-min Rain = 0
KWA1 191448Z 33014KT 04/M03 A3028 RMK A01 T00391026  RH  062%=      5-min Rain = 0
KWA1 191449Z 33013G18KT 04/M03 A3028 RMK A01 T00391025  RH  063%=      5-min Rain = 0
KWA1 191450Z 33016KT 04/M03 A3028 RMK A01 T00401025  RH  063%=      5-min Rain = 0
KWA1 191451Z 32015KT 04/M03 A3028 RMK A01 T00401025  RH  062%=      5-min Rain = 0
KWA1 191452Z 32015KT 04/M03 A3028 RMK A01 T00401025  RH  062%=      5-min Rain = 0
KWA1 191453Z 33016KT 04/M03 A3028 RMK A01 T00401025  RH  062%=      5-min Rain = 0
KWA1 191454Z 33017KT 04/M03 A3028 RMK A01 T00401027  RH  061%=      5-min Rain = 0
KWA1 191455Z 33016KT 04/M03 A3028 RMK A01 T00411028  RH  061%=      5-min Rain = 0
KWA1 191456Z 33016KT 04/M03 A3028 RMK A01 T00411028  RH  061%=      5-min Rain = 0
KWA1 191457Z 33016KT 04/M03 A3029 RMK A01 T00411026  RH  061%=      5-min Rain = 0
KWA1 191458Z 33015KT 04/M03 A3028 RMK A01 T00421027  RH  061%=      5-min Rain = 0
KWA1 191459Z 33017KT 04/M03 A3029 RMK A01 T00421027  RH  061%=      5-min Rain = 0
KWA1 191500Z 33017KT 04/M03 A3029 RMK A01 T00421028  RH  061%=      5-min Rain = 0
KWA1 191501Z 33015KT 04/M03 A3029 RMK A01 T00431027  RH  061%=      5-min Rain = 0
KWA1 191502Z 32017KT 04/M03 A3029 RMK A01 T00431028  RH  060%=      5-min Rain = 0
KWA1 191503Z 33017KT 04/M03 A3029 RMK A01 T00431028  RH  060%=      5-min Rain = 0
KWA1 191504Z 33015KT 04/M03 A3029 RMK A01 T00431028  RH  060%=      5-min Rain = 0
KWA1 191505Z 33017KT 04/M03 A3029 RMK A01 T00441028  RH  059%=      5-min Rain = 0
KWA1 191506Z 33015KT 04/M03 A3029 RMK A01 T00441029  RH  059%=      5-min Rain = 0
KWA1 191507Z 33018KT 05/M03 A3029 RMK A01 T00451029  RH  059%=      5-min Rain = 0
KWA1 191508Z 34018KT 05/M03 A3029 RMK A01 T00451030  RH  058%=      5-min Rain = 0
KWA1 191509Z 33017KT 05/M03 A3029 RMK A01 T00451029  RH  059%=      5-min Rain = 0
KWA1 191510Z 33016KT 05/M03 A3029 RMK A01 T00461028  RH  059%=      5-min Rain = 0
KWA1 191511Z 33017KT 05/M03 A3029 RMK A01 T00461030  RH  058%=      5-min Rain = 0
KWA1 191512Z 33018KT 05/M03 A3029 RMK A01 T00461031  RH  057%=      5-min Rain = 0
KWA1 191513Z 33014KT 05/M03 A3029 RMK A01 T00451030  RH  058%=      5-min Rain = 0
KWA1 191514Z 33017KT 05/M03 A3029 RMK A01 T00461029  RH  058%=      5-min Rain = 0
KWA1 191515Z 33014KT 05/M03 A3029 RMK A01 T00471030  RH  058%=      5-min Rain = 0
KWA1 191516Z 33017KT 05/M03 A3029 RMK A01 T00471029  RH  058%=      5-min Rain = 0
KWA1 191517Z 33017KT 05/M03 A303 RMK A01 T00471032  RH  056%=      5-min Rain = 0
KWA1 191518Z 33020KT 05/M03 A303 RMK A01 T00461032  RH  057%=      5-min Rain = 0
KWA1 191519Z 33019KT 05/M03 A303 RMK A01 T00461033  RH  057%=      5-min Rain = 0
KWA1 191520Z 34019KT 05/M03 A303 RMK A01 T00461032  RH  057%=      5-min Rain = 0
KWA1 191521Z 34017KT 05/M03 A303 RMK A01 T00471031  RH  057%=      5-min Rain = 0
KWA1 191522Z 34016KT 05/M03 A303 RMK A01 T00471032  RH  056%=      5-min Rain = 0
KWA1 191523Z 34020KT 05/M03 A303 RMK A01 T00471033  RH  056%=      5-min Rain = 0
KWA1 191524Z 34018KT 05/M03 A303 RMK A01 T00471034  RH  056%=      5-min Rain = 0
KWA1 191525Z 34017KT 05/M03 A303 RMK A01 T00471034  RH  055%=      5-min Rain = 0
KWA1 191526Z 33017KT 05/M03 A303 RMK A01 T00481033  RH  056%=      5-min Rain = 0
KWA1 191527Z 34015KT 05/M03 A3031 RMK A01 T00491033  RH  055%=      5-min Rain = 0
KWA1 191528Z 34016KT 05/M03 A3031 RMK A01 T00501032  RH  055%=      5-min Rain = 0
KWA1 191529Z 34015KT 05/M03 A3031 RMK A01 T00501032  RH  055%=      5-min Rain = 0
KWA1 191530Z 33014KT 05/M03 A3031 RMK A01 T00521030  RH  055%=      5-min Rain = 0
KWA1 191531Z 33015KT 05/M03 A3031 RMK A01 T00531032  RH  054%=      5-min Rain = 0
KWA1 191532Z 34015KT 05/M03 A3031 RMK A01 T00531031  RH  055%=      5-min Rain = 0
KWA1 191533Z 33016KT 05/M03 A3031 RMK A01 T00541030  RH  055%=      5-min Rain = 0
KWA1 191534Z 33017KT 06/M03 A3031 RMK A01 T00551029  RH  055%=      5-min Rain = 0
KWA1 191535Z 32017KT 06/M03 A3031 RMK A01 T00551031  RH  054%=      5-min Rain = 0
KWA1 191536Z 33017KT 05/M03 A3031 RMK A01 T00541033  RH  053%=      5-min Rain = 0
KWA1 191537Z 32016KT 05/M03 A3031 RMK A01 T00541032  RH  054%=      5-min Rain = 0
KWA1 191538Z 33016KT 06/M03 A3031 RMK A01 T00551031  RH  054%=      5-min Rain = 0
KWA1 191539Z 32016KT 06/M03 A3031 RMK A01 T00551033  RH  053%=      5-min Rain = 0
KWA1 191540Z 33018KT 06/M03 A3031 RMK A01 T00561033  RH  053%=      5-min Rain = 0
KWA1 191541Z 33019KT 06/M03 A3031 RMK A01 T00551034  RH  053%=      5-min Rain = 0
KWA1 191542Z 33016KT 06/M03 A3032 RMK A01 T00551033  RH  053%=      5-min Rain = 0
KWA1 191543Z 33017KT 06/M03 A3032 RMK A01 T00561030  RH  054%=      5-min Rain = 0
KWA1 191544Z 33013KT 06/M03 A3032 RMK A01 T00561031  RH  053%=      5-min Rain = 0
KWA1 191545Z 33013KT 06/M03 A3032 RMK A01 T00571030  RH  054%=      5-min Rain = 0
KWA1 191546Z 33018KT 06/M03 A3032 RMK A01 T00581030  RH  053%=      5-min Rain = 0
KWA1 191547Z 33017KT 06/M03 A3032 RMK A01 T00581031  RH  053%=      5-min Rain = 0
KWA1 191548Z 33019KT 06/M03 A3032 RMK A01 T00571033  RH  052%=      5-min Rain = 0
KWA1 191549Z 33016KT 06/M03 A3032 RMK A01 T00561034  RH  052%=      5-min Rain = 0
KWA1 191550Z 33017KT 06/M03 A3032 RMK A01 T00571032  RH  053%=      5-min Rain = 0
KWA1 191551Z 33018G24KT 06/M03 A3032 RMK A01 T00571032  RH  052%=      5-min Rain = 0
KWA1 191552Z 34018KT 06/M04 A3032 RMK A01 T00561035  RH  052%=      5-min Rain = 0
KWA1 191553Z 34018KT 06/M04 A3032 RMK A01 T00551035  RH  052%=      5-min Rain = 0
KWA1 191554Z 34019KT 06/M04 A3032 RMK A01 T00551035  RH  052%=      5-min Rain = 0
KWA1 191555Z 34017KT 06/M04 A3032 RMK A01 T00551035  RH  052%=      5-min Rain = 0
KWA1 191556Z 33015KT 06/M03 A3032 RMK A01 T00561033  RH  053%=      5-min Rain = 0
KWA1 191557Z 33016KT 06/M03 A3032 RMK A01 T00571031  RH  053%=      5-min Rain = 0
KWA1 191558Z 33017KT 06/M03 A3032 RMK A01 T00591032  RH  052%=      5-min Rain = 0
KWA1 191559Z 33014KT 06/M03 A3032 RMK A01 T00591032  RH  052%=      5-min Rain = 0
KWA1 191600Z 32017KT 06/M03 A3032 RMK A01 T00591032  RH  052%=      5-min Rain = 0
KWA1 191601Z 33017KT 06/M03 A3032 RMK A01 T00591032  RH  052%=      5-min Rain = 0
KWA1 191602Z 33016KT 06/M03 A3032 RMK A01 T00591031  RH  052%=      5-min Rain = 0
KWA1 191603Z 33017KT 06/M03 A3032 RMK A01 T00601032  RH  052%=      5-min Rain = 0
KWA1 191604Z 33018KT 06/M03 A3032 RMK A01 T00601033  RH  051%=      5-min Rain = 0
KWA1 191605Z 33018KT 06/M03 A3032 RMK A01 T00591033  RH  051%=      5-min Rain = 0
KWA1 191606Z 34017KT 06/M03 A3033 RMK A01 T00591033  RH  052%=      5-min Rain = 0
KWA1 191607Z 34017KT 06/M03 A3033 RMK A01 T00591033  RH  052%=      5-min Rain = 0
KWA1 191608Z 34020KT 06/M03 A3033 RMK A01 T00601031  RH  052%=      5-min Rain = 0
KWA1 191609Z 34021KT 06/M03 A3033 RMK A01 T00601034  RH  051%=      5-min Rain = 0
KWA1 191610Z 34019KT 06/M03 A3033 RMK A01 T00601033  RH  051%=      5-min Rain = 0
KWA1 191611Z 33018KT 06/M03 A3033 RMK A01 T00601032  RH  052%=      5-min Rain = 0
KWA1 191612Z 33017KT 06/M03 A3033 RMK A01 T00611032  RH  051%=      5-min Rain = 0
KWA1 191613Z 33014KT 06/M03 A3033 RMK A01 T00611031  RH  052%=      5-min Rain = 0
KWA1 191614Z 34015KT 06/M03 A3033 RMK A01 T00621028  RH  052%=      5-min Rain = 0
KWA1 191615Z 34017KT 06/M03 A3033 RMK A01 T00641028  RH  052%=      5-min Rain = 0
KWA1 191616Z 33014KT 06/M03 A3033 RMK A01 T00641030  RH  051%=      5-min Rain = 0
KWA1 191617Z 32015KT 06/M03 A3033 RMK A01 T00641026  RH  053%=      5-min Rain = 0
KWA1 191618Z 33016KT 07/M03 A3033 RMK A01 T00651027  RH  052%=      5-min Rain = 0
KWA1 191619Z 32018KT 06/M03 A3033 RMK A01 T00641030  RH  051%=      5-min Rain = 0
KWA1 191620Z 32018KT 06/M03 A3033 RMK A01 T00641030  RH  051%=      5-min Rain = 0
KWA1 191621Z 33018KT 07/M03 A3033 RMK A01 T00651028  RH  051%=      5-min Rain = 0
KWA1 191622Z 33018KT 07/M03 A3033 RMK A01 T00651031  RH  050%=      5-min Rain = 0
KWA1 191623Z 33017KT 06/M03 A3033 RMK A01 T00631032  RH  050%=      5-min Rain = 0
KWA1 191624Z 33017KT 06/M03 A3033 RMK A01 T00641028  RH  052%=      5-min Rain = 0
KWA1 191625Z 32014KT 07/M03 A3033 RMK A01 T00661027  RH  052%=      5-min Rain = 0
KWA1 191626Z 32017KT 07/M03 A3034 RMK A01 T00671026  RH  051%=      5-min Rain = 0
KWA1 191627Z 32016KT 07/M03 A3034 RMK A01 T00671028  RH  051%=      5-min Rain = 0
KWA1 191628Z 33017KT 07/M03 A3034 RMK A01 T00661029  RH  051%=      5-min Rain = 0
KWA1 191629Z 33015KT 07/M03 A3034 RMK A01 T00651028  RH  051%=      5-min Rain = 0
KWA1 191630Z 33016G22KT 07/M03 A3034 RMK A01 T00661027  RH  051%=      5-min Rain = 0
KWA1 191631Z 33017KT 07/M03 A3034 RMK A01 T00671029  RH  050%=      5-min Rain = 0
KWA1 191632Z 33020KT 07/M03 A3034 RMK A01 T00691026  RH  051%=      5-min Rain = 0
KWA1 191633Z 34018KT 07/M03 A3034 RMK A01 T00681031  RH  049%=      5-min Rain = 0
KWA1 191634Z 34017KT 07/M03 A3034 RMK A01 T00671031  RH  050%=      5-min Rain = 0
KWA1 191635Z 33018KT 07/M03 A3034 RMK A01 T00671030  RH  050%=      5-min Rain = 0
KWA1 191636Z 33018KT 07/M03 A3034 RMK A01 T00671031  RH  050%=      5-min Rain = 0
KWA1 191637Z 33020KT 07/M03 A3034 RMK A01 T00671031  RH  049%=      5-min Rain = 0
KWA1 191638Z 34021KT 07/M03 A3034 RMK A01 T00671033  RH  049%=      5-min Rain = 0
KWA1 191639Z 34019KT 07/M04 A3034 RMK A01 T00651035  RH  049%=      5-min Rain = 0
KWA1 191640Z 34016KT 07/M03 A3034 RMK A01 T00651033  RH  050%=      5-min Rain = 0
KWA1 191641Z 33014KT 07/M03 A3034 RMK A01 T00671029  RH  050%=      5-min Rain = 0
KWA1 191642Z 33016KT 07/M03 A3034 RMK A01 T00701028  RH  050%=      5-min Rain = 0
KWA1 191643Z 33016KT 07/M03 A3034 RMK A01 T00721027  RH  050%=      5-min Rain = 0
KWA1 191644Z 32017KT 07/M03 A3034 RMK A01 T00731028  RH  049%=      5-min Rain = 0
KWA1 191645Z 33017KT 07/M03 A3034 RMK A01 T00721029  RH  048%=      5-min Rain = 0
KWA1 191646Z 32016KT 07/M03 A3034 RMK A01 T00711031  RH  048%=      5-min Rain = 0
KWA1 191647Z 33014KT 07/M03 A3034 RMK A01 T00701029  RH  049%=      5-min Rain = 0
KWA1 191648Z 33016KT 07/M03 A3034 RMK A01 T00731026  RH  049%=      5-min Rain = 0
KWA1 191649Z 32018KT 08/M03 A3034 RMK A01 T00751029  RH  048%=      5-min Rain = 0
KWA1 191650Z 33018KT 07/M03 A3034 RMK A01 T00731032  RH  047%=      5-min Rain = 0
KWA1 191651Z 33018KT 07/M03 A3034 RMK A01 T00721032  RH  048%=      5-min Rain = 0
KWA1 191652Z 32019KT 07/M03 A3034 RMK A01 T00721031  RH  048%=      5-min Rain = 0
KWA1 191653Z 33018G23KT 07/M03 A3034 RMK A01 T00731030  RH  048%=      5-min Rain = 0
KWA1 191654Z 33019KT 07/M03 A3034 RMK A01 T00741031  RH  047%=      5-min Rain = 0
KWA1 191655Z 34017KT 07/M03 A3034 RMK A01 T00741030  RH  048%=      5-min Rain = 0
KWA1 191656Z 34018KT 08/M03 A3034 RMK A01 T00761028  RH  048%=      5-min Rain = 0
KWA1 191657Z 34018KT 08/M03 A3034 RMK A01 T00751029  RH  048%=      5-min Rain = 0
KWA1 191658Z 33016KT 08/M03 A3034 RMK A01 T00751028  RH  048%=      5-min Rain = 0
KWA1 191659Z 33017KT 07/M03 A3034 RMK A01 T00731031  RH  047%=      5-min Rain = 0
KWA1 191700Z 33019KT 07/M03 A3034 RMK A01 T00741031  RH  047%=      5-min Rain = 0
KWA1 191701Z 34017KT 07/M03 A3034 RMK A01 T00731031  RH  047%=      5-min Rain = 0
KWA1 191702Z 33017G22KT 08/M03 A3034 RMK A01 T00751029  RH  048%=      5-min Rain = 0
KWA1 191703Z 34017KT 07/M03 A3034 RMK A01 T00741033  RH  047%=      5-min Rain = 0
KWA1 191704Z 34016KT 07/M03 A3034 RMK A01 T00741030  RH  048%=      5-min Rain = 0
KWA1 191705Z 34020KT 08/M03 A3034 RMK A01 T00761029  RH  047%=      5-min Rain = 0
KWA1 191706Z 34019KT 08/M03 A3034 RMK A01 T00781030  RH  047%=      5-min Rain = 0
KWA1 191707Z 35020KT 08/M03 A3034 RMK A01 T00761032  RH  046%=      5-min Rain = 0
KWA1 191708Z 35019KT 07/M03 A3033 RMK A01 T00741033  RH  047%=      5-min Rain = 0
KWA1 191709Z 35017KT 07/M03 A3033 RMK A01 T00731033  RH  047%=      5-min Rain = 0
KWA1 191710Z 35016KT 07/M03 A3033 RMK A01 T00731030  RH  048%=      5-min Rain = 0
KWA1 191711Z 35015KT 08/M03 A3033 RMK A01 T00761027  RH  048%=      5-min Rain = 0
KWA1 191712Z 34014KT 08/M03 A3033 RMK A01 T00781027  RH  047%=      5-min Rain = 0
KWA1 191713Z 34021G26KT 08/M03 A3033 RMK A01 T00811025  RH  047%=      5-min Rain = 0
KWA1 191714Z 34021KT 08/M03 A3033 RMK A01 T00791032  RH  045%=      5-min Rain = 0
KWA1 191715Z 34019KT 08/M03 A3033 RMK A01 T00771033  RH  046%=      5-min Rain = 0
KWA1 191716Z 34016KT 08/M03 A3033 RMK A01 T00761031  RH  047%=      5-min Rain = 0
KWA1 191717Z 34018G23KT 08/M03 A3033 RMK A01 T00781029  RH  047%=      5-min Rain = 0
KWA1 191718Z 34018KT 08/M03 A3033 RMK A01 T00791029  RH  046%=      5-min Rain = 0
KWA1 191719Z 35018KT 08/M03 A3033 RMK A01 T00791028  RH  047%=      5-min Rain = 0
KWA1 191720Z 35019KT 08/M03 A3033 RMK A01 T00801027  RH  047%=      5-min Rain = 0
KWA1 191721Z 34017KT 08/M03 A3033 RMK A01 T00801028  RH  047%=      5-min Rain = 0
KWA1 191722Z 34017KT 08/M03 A3033 RMK A01 T00791029  RH  046%=      5-min Rain = 0
KWA1 191723Z 34021KT 08/M03 A3033 RMK A01 T00811027  RH  046%=      5-min Rain = 0
KWA1 191724Z 34020KT 08/M03 A3033 RMK A01 T00791032  RH  045%=      5-min Rain = 0
KWA1 191725Z 34019KT 08/M03 A3033 RMK A01 T00781032  RH  046%=      5-min Rain = 0
KWA1 191726Z 34020KT 08/M03 A3033 RMK A01 T00791029  RH  046%=      5-min Rain = 0
KWA1 191727Z 34018KT 08/M03 A3033 RMK A01 T00791030  RH  046%=      5-min Rain = 0
KWA1 191728Z 35018KT 08/M03 A3033 RMK A01 T00781032  RH  046%=      5-min Rain = 0
KWA1 191729Z 35020KT 08/M03 A3033 RMK A01 T00791028  RH  047%=      5-min Rain = 0
KWA1 191730Z 34021KT 08/M03 A3033 RMK A01 T00821030  RH  045%=      5-min Rain = 0
KWA1 191731Z 33018KT 08/M03 A3033 RMK A01 T00801031  RH  045%=      5-min Rain = 0
KWA1 191732Z 33017KT 08/M03 A3033 RMK A01 T00811029  RH  046%=      5-min Rain = 0
KWA1 191733Z 33015G20KT 08/M03 A3033 RMK A01 T00811030  RH  045%=      5-min Rain = 0
KWA1 191734Z 34018KT 08/M03 A3033 RMK A01 T00811031  RH  045%=      5-min Rain = 0
KWA1 191735Z 33015G21KT 08/M03 A3033 RMK A01 T00821027  RH  046%=      5-min Rain = 0
KWA1 191736Z 33023KT 09/M03 A3033 RMK A01 T00851027  RH  045%=      5-min Rain = 0
KWA1 191737Z 34018KT 08/M03 A3033 RMK A01 T00821032  RH  044%=      5-min Rain = 0
KWA1 191738Z 33016KT 08/M03 A3033 RMK A01 T00811030  RH  045%=      5-min Rain = 0
KWA1 191739Z 33017KT 08/M03 A3033 RMK A01 T00821029  RH  045%=      5-min Rain = 0
KWA1 191740Z 33020KT 08/M03 A3033 RMK A01 T00831029  RH  045%=      5-min Rain = 0
KWA1 191741Z 34016KT 08/M03 A3033 RMK A01 T00831029  RH  045%=      5-min Rain = 0
KWA1 191742Z 32017G22KT 08/M03 A3033 RMK A01 T00841028  RH  045%=      5-min Rain = 0
KWA1 191743Z 32019KT 09/M03 A3033 RMK A01 T00851029  RH  044%=      5-min Rain = 0
KWA1 191744Z 32017KT 08/M03 A3033 RMK A01 T00831031  RH  044%=      5-min Rain = 0
KWA1 191745Z 33015KT 08/M03 A3033 RMK A01 T00831028  RH  046%=      5-min Rain = 0
KWA1 191746Z 32014KT 08/M03 A3033 RMK A01 T00841026  RH  046%=      5-min Rain = 0
KWA1 191747Z 33017G23KT 09/M02 A3033 RMK A01 T00881022  RH  046%=      5-min Rain = 0
KWA1 191748Z 33017KT 09/M03 A3033 RMK A01 T00901026  RH  044%=      5-min Rain = 0
KWA1 191749Z 33015KT 09/M03 A3033 RMK A01 T00901025  RH  045%=      5-min Rain = 0
KWA1 191750Z 34016KT 09/M02 A3033 RMK A01 T00921024  RH  044%=      5-min Rain = 0
KWA1 191751Z 33017KT 09/M03 A3033 RMK A01 T00921025  RH  044%=      5-min Rain = 0
KWA1 191752Z 34016KT 09/M03 A3033 RMK A01 T00911025  RH  044%=      5-min Rain = 0
KWA1 191753Z 33014KT 09/M03 A3033 RMK A01 T00911025  RH  044%=      5-min Rain = 0
KWA1 191754Z 33016KT 09/M03 A3033 RMK A01 T00911027  RH  044%=      5-min Rain = 0
KWA1 191755Z 32016KT 09/M03 A3033 RMK A01 T00911025  RH  044%=      5-min Rain = 0
KWA1 191756Z 33017KT 09/M03 A3033 RMK A01 T00921027  RH  043%=      5-min Rain = 0
KWA1 191757Z 33019KT 09/M03 A3032 RMK A01 T00891030  RH  043%=      5-min Rain = 0
KWA1 191758Z 33016KT 09/M03 A3032 RMK A01 T00871031  RH  043%=      5-min Rain = 0
KWA1 191759Z 34017KT 09/M03 A3032 RMK A01 T00871028  RH  044%=      5-min Rain = 0
KWA1 191800Z 34018KT 09/M03 A3032 RMK A01 T00881027  RH  044%=      5-min Rain = 0
KWA1 191801Z 33019KT 09/M03 A3032 RMK A01 T00891028  RH  044%=      5-min Rain = 0
KWA1 191802Z 32017KT 09/M03 A3032 RMK A01 T00891029  RH  043%=      5-min Rain = 0
KWA1 191803Z 33016KT 09/M03 A3032 RMK A01 T00911025  RH  044%=      5-min Rain = 0
KWA1 191804Z 33018KT 09/M03 A3032 RMK A01 T00931027  RH  043%=      5-min Rain = 0
KWA1 191805Z 34018KT 09/M03 A3032 RMK A01 T00921027  RH  043%=      5-min Rain = 0
KWA1 191806Z 34017KT 09/M03 A3032 RMK A01 T00931025  RH  043%=      5-min Rain = 0
KWA1 191807Z 33016KT 10/M03 A3032 RMK A01 T00951026  RH  042%=      5-min Rain = 0
KWA1 191808Z 33016KT 09/M03 A3032 RMK A01 T00931027  RH  043%=      5-min Rain = 0
KWA1 191809Z 32018KT 09/M03 A3032 RMK A01 T00921026  RH  043%=      5-min Rain = 0
KWA1 191810Z 33014KT 09/M03 A3032 RMK A01 T00921026  RH  043%=      5-min Rain = 0
KWA1 191811Z 32013G18KT 10/M02 A3032 RMK A01 T00951021  RH  044%=      5-min Rain = 0
KWA1 191812Z 32017G22KT 10/M02 A3032 RMK A01 T01011020  RH  043%=      5-min Rain = 0
KWA1 191813Z 33017KT 10/M03 A3032 RMK A01 T00981028  RH  041%=      5-min Rain = 0
KWA1 191814Z 33018KT 10/M03 A3032 RMK A01 T00961027  RH  042%=      5-min Rain = 0
KWA1 191815Z 32019KT 09/M03 A3031 RMK A01 T00941028  RH  042%=      5-min Rain = 0
KWA1 191816Z 33017KT 09/M03 A3031 RMK A01 T00931027  RH  043%=      5-min Rain = 0
KWA1 191817Z 33014KT 09/M03 A3031 RMK A01 T00921028  RH  043%=      5-min Rain = 0
KWA1 191818Z 32017KT 09/M03 A3031 RMK A01 T00921027  RH  043%=      5-min Rain = 0
KWA1 191819Z 32020KT 09/M03 A3031 RMK A01 T00941026  RH  043%=      5-min Rain = 0
KWA1 191820Z 32018G23KT 09/M03 A3031 RMK A01 T00941028  RH  042%=      5-min Rain = 0
KWA1 191821Z 32015KT 10/M03 A3031 RMK A01 T00951026  RH  043%=      5-min Rain = 0
KWA1 191822Z 32015G20KT 10/M03 A3031 RMK A01 T00961025  RH  043%=      5-min Rain = 0
KWA1 191823Z 32019KT 10/M03 A3031 RMK A01 T00981025  RH  042%=      5-min Rain = 0
KWA1 191824Z 32018KT 10/M03 A3031 RMK A01 T00981026  RH  042%=      5-min Rain = 0
KWA1 191825Z 33018G24KT 10/M02 A3031 RMK A01 T00991023  RH  042%=      5-min Rain = 0
KWA1 191826Z 33020KT 10/M03 A3031 RMK A01 T01011025  RH  041%=      5-min Rain = 0
KWA1 191827Z 33018KT 10/M03 A3031 RMK A01 T00991027  RH  041%=      5-min Rain = 0
KWA1 191828Z 34019KT 10/M03 A3031 RMK A01 T00961028  RH  042%=      5-min Rain = 0
KWA1 191829Z 33017KT 10/M03 A3031 RMK A01 T00961026  RH  042%=      5-min Rain = 0
KWA1 191830Z 32018KT 10/M03 A3031 RMK A01 T00981026  RH  042%=      5-min Rain = 0
KWA1 191831Z 33018KT 10/M03 A3031 RMK A01 T00981026  RH  042%=      5-min Rain = 0
KWA1 191832Z 33014KT 10/M03 A3031 RMK A01 T00981026  RH  042%=      5-min Rain = 0
KWA1 191833Z 33017G22KT 10/M02 A3031 RMK A01 T01001021  RH  043%=      5-min Rain = 0
KWA1 191834Z 32020KT 10/M02 A3031 RMK A01 T01031024  RH  041%=      5-min Rain = 0
KWA1 191835Z 33019KT 10/M03 A3031 RMK A01 T01021026  RH  041%=      5-min Rain = 0
KWA1 191836Z 33021KT 10/M03 A3031 RMK A01 T01021027  RH  040%=      5-min Rain = 0
KWA1 191837Z 33017G22KT 10/M03 A3031 RMK A01 T01011028  RH  040%=      5-min Rain = 0
KWA1 191838Z 34019KT 10/M03 A3031 RMK A01 T01021026  RH  041%=      5-min Rain = 0
KWA1 191839Z 34019KT 10/M03 A3031 RMK A01 T01031025  RH  041%=      5-min Rain = 0
KWA1 191840Z 33021KT 10/M02 A3031 RMK A01 T01031024  RH  041%=      5-min Rain = 0
KWA1 191841Z 33018KT 10/M03 A3031 RMK A01 T01031028  RH  040%=      5-min Rain = 0
KWA1 191842Z 32022KT 10/M03 A3031 RMK A01 T01031026  RH  041%=      5-min Rain = 0
KWA1 191843Z 32018KT 10/M03 A303 RMK A01 T01021026  RH  041%=      5-min Rain = 0
KWA1 191844Z 32019KT 10/M03 A3031 RMK A01 T01021025  RH  041%=      5-min Rain = 0
KWA1 191845Z 32019KT 10/M03 A3031 RMK A01 T01031025  RH  041%=      5-min Rain = 0
KWA1 191846Z 33018G25KT 10/M03 A303 RMK A01 T01021025  RH  041%=      5-min Rain = 0
KWA1 191847Z 34019KT 10/M02 A303 RMK A01 T01031024  RH  041%=      5-min Rain = 0
KWA1 191848Z 33016KT 11/M02 A3031 RMK A01 T01081024  RH  040%=      5-min Rain = 0
KWA1 191849Z 32018G23KT 11/M02 A303 RMK A01 T01091023  RH  040%=      5-min Rain = 0
KWA1 191850Z 32020KT 11/M02 A303 RMK A01 T01091024  RH  039%=      5-min Rain = 0
KWA1 191851Z 32021KT 11/M03 A303 RMK A01 T01081026  RH  039%=      5-min Rain = 0
KWA1 191852Z 33020G25KT 11/M03 A303 RMK A01 T01061027  RH  039%=      5-min Rain = 0
KWA1 191853Z 33023KT 11/M03 A303 RMK A01 T01071025  RH  039%=      5-min Rain = 0
KWA1 191854Z 33023KT 11/M03 A303 RMK A01 T01061028  RH  039%=      5-min Rain = 0
KWA1 191855Z 32019KT 11/M03 A303 RMK A01 T01051028  RH  039%=      5-min Rain = 0
KWA1 191856Z 33017G22KT 11/M02 A303 RMK A01 T01081024  RH  040%=      5-min Rain = 0
KWA1 191857Z 34021KT 11/M03 A303 RMK A01 T01101026  RH  038%=      5-min Rain = 0
KWA1 191858Z 34020KT 11/M03 A303 RMK A01 T01091028  RH  038%=      5-min Rain = 0
KWA1 191859Z 34020KT 11/M03 A303 RMK A01 T01081027  RH  039%=      5-min Rain = 0
KWA1 191900Z 34019KT 11/M03 A303 RMK A01 T01081027  RH  039%=      5-min Rain = 0
KWA1 191901Z 33016KT 11/M03 A303 RMK A01 T01051030  RH  039%=      5-min Rain = 0
KWA1 191902Z 34016KT 11/M03 A303 RMK A01 T01061025  RH  040%=      5-min Rain = 0
KWA1 191903Z 33016G21KT 11/M03 A303 RMK A01 T01091025  RH  039%=      5-min Rain = 0
KWA1 191904Z 33020KT 11/M03 A303 RMK A01 T01111025  RH  038%=      5-min Rain = 0
KWA1 191905Z 33018KT 11/M03 A303 RMK A01 T01091027  RH  038%=      5-min Rain = 0
KWA1 191906Z 33017G24KT 11/M03 A3029 RMK A01 T01101026  RH  039%=      5-min Rain = 0
KWA1 191907Z 32022KT 11/M03 A3029 RMK A01 T01111027  RH  038%=      5-min Rain = 0
KWA1 191908Z 32022G27KT 11/M03 A3029 RMK A01 T01101029  RH  038%=      5-min Rain = 0
KWA1 191909Z 33022G27KT 11/M03 A3029 RMK A01 T01111026  RH  038%=      5-min Rain = 0
KWA1 191910Z 33021KT 11/M03 A3029 RMK A01 T01091031  RH  037%=      5-min Rain = 0
KWA1 191911Z 34018G24KT 11/M03 A3029 RMK A01 T01061031  RH  038%=      5-min Rain = 0
KWA1 191912Z 33020G25KT 11/M03 A3029 RMK A01 T01071029  RH  038%=      5-min Rain = 0
KWA1 191913Z 33020KT 11/M03 A3029 RMK A01 T01081031  RH  038%=      5-min Rain = 0
KWA1 191914Z 33018KT 11/M03 A3029 RMK A01 T01081030  RH  038%=      5-min Rain = 0
KWA1 191915Z 33018KT 11/M03 A3029 RMK A01 T01121025  RH  038%=      5-min Rain = 0
KWA1 191916Z 34020KT 12/M03 A3029 RMK A01 T01151025  RH  038%=      5-min Rain = 0
KWA1 191917Z 33019G24KT 11/M03 A3029 RMK A01 T01131028  RH  037%=      5-min Rain = 0
KWA1 191918Z 33022KT 11/M03 A3028 RMK A01 T01111031  RH  037%=      5-min Rain = 0
KWA1 191919Z 33021KT 11/M03 A3029 RMK A01 T01111030  RH  037%=      5-min Rain = 0
KWA1 191920Z 32019KT 11/M03 A3029 RMK A01 T01141028  RH  037%=      5-min Rain = 0
KWA1 191921Z 33019G27KT 11/M03 A3028 RMK A01 T01141028  RH  037%=      5-min Rain = 0
KWA1 191922Z 33021KT 12/M03 A3028 RMK A01 T01151029  RH  037%=      5-min Rain = 0
KWA1 191923Z 33023G28KT 11/M03 A3028 RMK A01 T01131030  RH  036%=      5-min Rain = 0
KWA1 191924Z 33020G25KT 11/M03 A3028 RMK A01 T01111032  RH  037%=      5-min Rain = 0
KWA1 191925Z 33019KT 11/M03 A3028 RMK A01 T01121031  RH  037%=      5-min Rain = 0
KWA1 191926Z 33018KT 11/M03 A3028 RMK A01 T01121030  RH  037%=      5-min Rain = 0
KWA1 191927Z 32020KT 11/M03 A3028 RMK A01 T01141026  RH  037%=      5-min Rain = 0
KWA1 191928Z 33022KT 11/M03 A3028 RMK A01 T01141031  RH  036%=      5-min Rain = 0
KWA1 191929Z 33019KT 11/M03 A3028 RMK A01 T01111033  RH  036%=      5-min Rain = 0
KWA1 191930Z 34019G24KT 11/M03 A3028 RMK A01 T01101030  RH  037%=      5-min Rain = 0
KWA1 191931Z 35021KT 11/M03 A3028 RMK A01 T01121028  RH  038%=      5-min Rain = 0
KWA1 191932Z 35019KT 11/M03 A3028 RMK A01 T01121029  RH  037%=      5-min Rain = 0
KWA1 191933Z 34018KT 11/M03 A3028 RMK A01 T01121028  RH  037%=      5-min Rain = 0
KWA1 191934Z 33020KT 11/M03 A3028 RMK A01 T01131028  RH  037%=      5-min Rain = 0
KWA1 191935Z 33018KT 11/M03 A3028 RMK A01 T01131029  RH  037%=      5-min Rain = 0
KWA1 191936Z 34016KT 11/M03 A3027 RMK A01 T01141028  RH  037%=      5-min Rain = 0
KWA1 191937Z 34018KT 11/M03 A3027 RMK A01 T01141028  RH  037%=      5-min Rain = 0
KWA1 191938Z 34016KT 11/M03 A3027 RMK A01 T01141028  RH  037%=      5-min Rain = 0
KWA1 191939Z 34018G23KT 11/M03 A3027 RMK A01 T01141027  RH  037%=      5-min Rain = 0
KWA1 191940Z 33017KT 11/M03 A3027 RMK A01 T01141030  RH  037%=      5-min Rain = 0
KWA1 191941Z 34017KT 11/M03 A3027 RMK A01 T01131029  RH  037%=      5-min Rain = 0
KWA1 191942Z 35021KT 12/M03 A3027 RMK A01 T01171025  RH  037%=      5-min Rain = 0
KWA1 191943Z 35022KT 12/M03 A3027 RMK A01 T01171028  RH  036%=      5-min Rain = 0
KWA1 191944Z 35021KT 11/M03 A3027 RMK A01 T01141030  RH  036%=      5-min Rain = 0
KWA1 191945Z 34018KT 11/M03 A3027 RMK A01 T01141028  RH  037%=      5-min Rain = 0
KWA1 191946Z 34020KT 12/M03 A3027 RMK A01 T01161027  RH  036%=      5-min Rain = 0
KWA1 191947Z 34018KT 12/M03 A3027 RMK A01 T01151029  RH  036%=      5-min Rain = 0
KWA1 191948Z 33017KT 12/M03 A3027 RMK A01 T01171026  RH  037%=      5-min Rain = 0
KWA1 191949Z 33018KT 12/M03 A3027 RMK A01 T01181026  RH  036%=      5-min Rain = 0
KWA1 191950Z 33018KT 12/M03 A3027 RMK A01 T01181026  RH  036%=      5-min Rain = 0
KWA1 191951Z 32019KT 12/M03 A3027 RMK A01 T01191026  RH  036%=      5-min Rain = 0
KWA1 191952Z 32020KT 12/M03 A3026 RMK A01 T01181027  RH  036%=      5-min Rain = 0
KWA1 191953Z 33015G20KT 12/M03 A3027 RMK A01 T01171027  RH  036%=      5-min Rain = 0
KWA1 191954Z 33016KT 12/M02 A3027 RMK A01 T01201023  RH  037%=      5-min Rain = 0
KWA1 191955Z 33018KT 12/M03 A3027 RMK A01 T01201026  RH  036%=      5-min Rain = 0
KWA1 191956Z 33015KT 12/M03 A3027 RMK A01 T01181027  RH  036%=      5-min Rain = 0
KWA1 191957Z 32014KT 12/M02 A3027 RMK A01 T01191024  RH  037%=      5-min Rain = 0
KWA1 191958Z 34020KT 12/M02 A3027 RMK A01 T01231023  RH  036%=      5-min Rain = 0
KWA1 191959Z 33021KT 12/M03 A3027 RMK A01 T01211030  RH  035%=      5-min Rain = 0
KWA1 192000Z 33020KT 12/M03 A3027 RMK A01 T01201028  RH  036%=      5-min Rain = 0
KWA1 192001Z 33018KT 12/M03 A3027 RMK A01 T01201029  RH  035%=      5-min Rain = 0
KWA1 192002Z 35017KT 12/M03 A3027 RMK A01 T01181027  RH  036%=      5-min Rain = 0
KWA1 192003Z 34016KT 12/M03 A3027 RMK A01 T01201025  RH  036%=      5-min Rain = 0
KWA1 192004Z 34020KT 12/M03 A3026 RMK A01 T01211026  RH  036%=      5-min Rain = 0
KWA1 192005Z 33017KT 12/M03 A3027 RMK A01 T01211027  RH  036%=      5-min Rain = 0
KWA1 192006Z 33016KT 12/M03 A3027 RMK A01 T01211029  RH  035%=      5-min Rain = 0
KWA1 192007Z 33018KT 12/M02 A3026 RMK A01 T01241024  RH  036%=      5-min Rain = 0
KWA1 192008Z 34021G26KT 13/M02 A3027 RMK A01 T01261023  RH  035%=      5-min Rain = 0
KWA1 192009Z 34019G24KT 13/M03 A3027 RMK A01 T01251029  RH  034%=      5-min Rain = 0
KWA1 192010Z 34017G25KT 12/M03 A3027 RMK A01 T01221030  RH  035%=      5-min Rain = 0
KWA1 192011Z 33019G24KT 12/M03 A3027 RMK A01 T01221028  RH  035%=      5-min Rain = 0
KWA1 192012Z 33018KT 12/M03 A3027 RMK A01 T01241026  RH  035%=      5-min Rain = 0
KWA1 192013Z 33018KT 12/M03 A3027 RMK A01 T01241027  RH  035%=      5-min Rain = 0
KWA1 192014Z 33021KT 12/M03 A3027 RMK A01 T01231030  RH  034%=      5-min Rain = 0
KWA1 192015Z 33020G25KT 12/M03 A3027 RMK A01 T01211030  RH  035%=      5-min Rain = 0
KWA1 192016Z 33021KT 12/M03 A3027 RMK A01 T01211030  RH  035%=      5-min Rain = 0
KWA1 192017Z 33019KT 12/M03 A3027 RMK A01 T01221028  RH  035%=      5-min Rain = 0
KWA1 192018Z 33019G24KT 12/M03 A3027 RMK A01 T01231028  RH  035%=      5-min Rain = 0
KWA1 192019Z 33022KT 12/M03 A3027 RMK A01 T01241029  RH  035%=      5-min Rain = 0
KWA1 192020Z 34022KT 12/M03 A3027 RMK A01 T01241030  RH  034%=      5-min Rain = 0
KWA1 192021Z 34022KT 12/M03 A3027 RMK A01 T01221031  RH  034%=      5-min Rain = 0
KWA1 192022Z 34020KT 12/M03 A3027 RMK A01 T01221031  RH  034%=      5-min Rain = 0
KWA1 192023Z 35018KT 12/M03 A3027 RMK A01 T01211030  RH  035%=      5-min Rain = 0
KWA1 192024Z 34016G22KT 12/M03 A3027 RMK A01 T01231028  RH  035%=      5-min Rain = 0
KWA1 192025Z 34019G24KT 12/M03 A3027 RMK A01 T01241028  RH  035%=      5-min Rain = 0
KWA1 192026Z 34018KT 12/M03 A3027 RMK A01 T01231030  RH  034%=      5-min Rain = 0
KWA1 192027Z 33018KT 12/M03 A3027 RMK A01 T01231027  RH  035%=      5-min Rain = 0
KWA1 192028Z 33019KT 12/M03 A3027 RMK A01 T01241029  RH  034%=      5-min Rain = 0
KWA1 192029Z 32017KT 12/M03 A3027 RMK A01 T01231029  RH  034%=      5-min Rain = 0
KWA1 192030Z 33017KT 12/M03 A3027 RMK A01 T01241025  RH  035%=      5-min Rain = 0
KWA1 192031Z 33012KT 13/M03 A3027 RMK A01 T01251027  RH  035%=      5-min Rain = 0
KWA1 192032Z 33015KT 12/M03 A3027 RMK A01 T01241026  RH  035%=      5-min Rain = 0
KWA1 192033Z 33015G20KT 13/M03 A3027 RMK A01 T01251027  RH  035%=      5-min Rain = 0
KWA1 192034Z 33017KT 13/M03 A3027 RMK A01 T01251026  RH  035%=      5-min Rain = 0
KWA1 192035Z 32017KT 13/M03 A3027 RMK A01 T01271027  RH  034%=      5-min Rain = 0
KWA1 192036Z 33020KT 13/M03 A3027 RMK A01 T01271029  RH  034%=      5-min Rain = 0
KWA1 192037Z 33018G25KT 13/M03 A3027 RMK A01 T01281027  RH  034%=      5-min Rain = 0
KWA1 192038Z 33018KT 13/M02 A3027 RMK A01 T01311023  RH  034%=      5-min Rain = 0
KWA1 192039Z 34022KT 13/M03 A3027 RMK A01 T01321026  RH  033%=      5-min Rain = 0
KWA1 192040Z 34019KT 13/M03 A3027 RMK A01 T01291028  RH  033%=      5-min Rain = 0
KWA1 192041Z 34019KT 13/M03 A3027 RMK A01 T01281028  RH  034%=      5-min Rain = 0
KWA1 192042Z 33016KT 13/M03 A3027 RMK A01 T01271027  RH  034%=      5-min Rain = 0
KWA1 192043Z 33019KT 13/M02 A3027 RMK A01 T01311023  RH  034%=      5-min Rain = 0
KWA1 192044Z 33019G24KT 13/M03 A3027 RMK A01 T01291028  RH  033%=      5-min Rain = 0
KWA1 192045Z 33019KT 13/M03 A3027 RMK A01 T01271028  RH  034%=      5-min Rain = 0
KWA1 192046Z 32020KT 13/M03 A3027 RMK A01 T01271026  RH  034%=      5-min Rain = 0
KWA1 192047Z 32016KT 13/M03 A3027 RMK A01 T01271027  RH  034%=      5-min Rain = 0
KWA1 192048Z 33018G23KT 13/M03 A3027 RMK A01 T01271025  RH  035%=      5-min Rain = 0
KWA1 192049Z 33018KT 13/M02 A3027 RMK A01 T01311021  RH  035%=      5-min Rain = 0
KWA1 192050Z 32020KT 13/M03 A3027 RMK A01 T01311025  RH  034%=      5-min Rain = 0
KWA1 192051Z 33018KT 13/M03 A3027 RMK A01 T01291028  RH  034%=      5-min Rain = 0
KWA1 192052Z 33020G25KT 13/M03 A3027 RMK A01 T01291025  RH  034%=      5-min Rain = 0
KWA1 192053Z 32024KT 13/M03 A3027 RMK A01 T01311026  RH  034%=      5-min Rain = 0
KWA1 192054Z 33021KT 13/M03 A3027 RMK A01 T01301027  RH  033%=      5-min Rain = 0
KWA1 192055Z 33019G25KT 13/M03 A3027 RMK A01 T01301027  RH  034%=      5-min Rain = 0
KWA1 192056Z 33019G24KT 13/M02 A3027 RMK A01 T01311023  RH  034%=      5-min Rain = 0
KWA1 192057Z 33021KT 13/M03 A3027 RMK A01 T01321026  RH  033%=      5-min Rain = 0
KWA1 192058Z 34022KT 13/M03 A3027 RMK A01 T01301029  RH  033%=      5-min Rain = 0
KWA1 192059Z 34021KT 13/M03 A3027 RMK A01 T01281029  RH  033%=      5-min Rain = 0
KWA1 192100Z 34020G25KT 13/M03 A3027 RMK A01 T01271027  RH  034%=      5-min Rain = 0
KWA1 192101Z 33019G24KT 13/M03 A3027 RMK A01 T01291026  RH  034%=      5-min Rain = 0
KWA1 192102Z 33019KT 13/M03 A3026 RMK A01 T01301026  RH  034%=      5-min Rain = 0
KWA1 192103Z 33017G22KT 13/M03 A3027 RMK A01 T01311026  RH  034%=      5-min Rain = 0
KWA1 192104Z 34019KT 13/M03 A3026 RMK A01 T01311026  RH  033%=      5-min Rain = 0
KWA1 192105Z 34019KT 13/M03 A3026 RMK A01 T01301027  RH  034%=      5-min Rain = 0
KWA1 192106Z 34017KT 13/M03 A3026 RMK A01 T01301026  RH  034%=      5-min Rain = 0
KWA1 192107Z 34020G26KT 13/M02 A3026 RMK A01 T01311024  RH  034%=      5-min Rain = 0
KWA1 192108Z 32024G30KT 13/M03 A3026 RMK A01 T01321027  RH  033%=      5-min Rain = 0
KWA1 192109Z 34017G23KT 13/M03 A3026 RMK A01 T01311025  RH  034%=      5-min Rain = 0
KWA1 192110Z 34017KT 13/M02 A3026 RMK A01 T01331023  RH  034%=      5-min Rain = 0
KWA1 192111Z 34018KT 13/M02 A3026 RMK A01 T01341022  RH  034%=      5-min Rain = 0
KWA1 192112Z 34020G25KT 13/M02 A3026 RMK A01 T01331023  RH  034%=      5-min Rain = 0
KWA1 192113Z 33021KT 13/M03 A3026 RMK A01 T01321026  RH  033%=      5-min Rain = 0
KWA1 192114Z 32023KT 13/M03 A3026 RMK A01 T01311029  RH  033%=      5-min Rain = 0
KWA1 192115Z 33022KT 13/M03 A3026 RMK A01 T01301029  RH  033%=      5-min Rain = 0
KWA1 192116Z 33024KT 13/M03 A3026 RMK A01 T01291030  RH  033%=      5-min Rain = 0
KWA1 192117Z 33023KT 13/M03 A3026 RMK A01 T01281031  RH  033%=      5-min Rain = 0
KWA1 192118Z 33020G25KT 13/M03 A3026 RMK A01 T01271031  RH  033%=      5-min Rain = 0
KWA1 192119Z 33020G25KT 13/M03 A3026 RMK A01 T01291028  RH  034%=      5-min Rain = 0
KWA1 192120Z 33018G23KT 13/M03 A3026 RMK A01 T01291029  RH  033%=      5-min Rain = 0
KWA1 192121Z 34022G27KT 13/M03 A3026 RMK A01 T01291028  RH  033%=      5-min Rain = 0
KWA1 192122Z 34021G27KT 13/M03 A3026 RMK A01 T01301028  RH  033%=      5-min Rain = 0
KWA1 192123Z 33017KT 13/M03 A3026 RMK A01 T01321025  RH  033%=      5-min Rain = 0
KWA1 192124Z 34020G25KT 13/M03 A3026 RMK A01 T01331027  RH  033%=      5-min Rain = 0
KWA1 192125Z 34024KT 13/M03 A3026 RMK A01 T01321028  RH  033%=      5-min Rain = 0
KWA1 192126Z 34019KT 13/M03 A3026 RMK A01 T01301028  RH  033%=      5-min Rain = 0
KWA1 192127Z 34022KT 13/M03 A3026 RMK A01 T01311027  RH  033%=      5-min Rain = 0
KWA1 192128Z 34020KT 13/M03 A3026 RMK A01 T01311025  RH  034%=      5-min Rain = 0
KWA1 192129Z 34022KT 13/M03 A3026 RMK A01 T01311028  RH  033%=      5-min Rain = 0
KWA1 192130Z 34020KT 13/M03 A3025 RMK A01 T01301028  RH  033%=      5-min Rain = 0
KWA1 192131Z 33019KT 13/M03 A3025 RMK A01 T01291029  RH  033%=      5-min Rain = 0
KWA1 192132Z 34017KT 13/M03 A3025 RMK A01 T01291026  RH  034%=      5-min Rain = 0
KWA1 192133Z 34016KT 13/M02 A3025 RMK A01 T01311024  RH  034%=      5-min Rain = 0
KWA1 192134Z 34019KT 13/M02 A3025 RMK A01 T01331023  RH  034%=      5-min Rain = 0
KWA1 192135Z 34020KT 13/M03 A3025 RMK A01 T01331026  RH  033%=      5-min Rain = 0
KWA1 192136Z 34021KT 13/M03 A3025 RMK A01 T01321025  RH  034%=      5-min Rain = 0
KWA1 192137Z 34018G23KT 13/M03 A3025 RMK A01 T01331025  RH  033%=      5-min Rain = 0
KWA1 192138Z 33015G20KT 13/M02 A3026 RMK A01 T01341022  RH  034%=      5-min Rain = 0
KWA1 192139Z 34017KT 14/M02 A3026 RMK A01 T01351023  RH  033%=      5-min Rain = 0
KWA1 192140Z 33016KT 13/M02 A3026 RMK A01 T01341023  RH  034%=      5-min Rain = 0
KWA1 192141Z 34017KT 13/M02 A3026 RMK A01 T01331023  RH  034%=      5-min Rain = 0
KWA1 192142Z 34016KT 13/M02 A3026 RMK A01 T01331024  RH  034%=      5-min Rain = 0
KWA1 192143Z 34017KT 13/M02 A3026 RMK A01 T01321023  RH  034%=      5-min Rain = 0
KWA1 192144Z 34017KT 13/M02 A3026 RMK A01 T01331022  RH  034%=      5-min Rain = 0
KWA1 192145Z 34017KT 13/M02 A3026 RMK A01 T01321024  RH  034%=      5-min Rain = 0
KWA1 192146Z 34018KT 13/M02 A3026 RMK A01 T01311023  RH  034%=      5-min Rain = 0
KWA1 192147Z 33017KT 13/M02 A3026 RMK A01 T01311024  RH  034%=      5-min Rain = 0
KWA1 192148Z 33018KT 13/M02 A3026 RMK A01 T01311023  RH  034%=      5-min Rain = 0
KWA1 192149Z 33019KT 13/M02 A3026 RMK A01 T01321024  RH  034%=      5-min Rain = 0
KWA1 192150Z 33021KT 13/M03 A3026 RMK A01 T01321025  RH  034%=      5-min Rain = 0
KWA1 192151Z 33017KT 13/M03 A3026 RMK A01 T01301027  RH  033%=      5-min Rain = 0
KWA1 192152Z 32017KT 13/M03 A3026 RMK A01 T01291026  RH  034%=      5-min Rain = 0
KWA1 192153Z 33016KT 13/M03 A3026 RMK A01 T01291025  RH  034%=      5-min Rain = 0
KWA1 192154Z 33016KT 13/M02 A3026 RMK A01 T01301023  RH  034%=      5-min Rain = 0
KWA1 192155Z 33020KT 13/M02 A3026 RMK A01 T01321024  RH  034%=      5-min Rain = 0
KWA1 192156Z 33019KT 13/M03 A3026 RMK A01 T01311027  RH  033%=      5-min Rain = 0
KWA1 192157Z 33014KT 13/M03 A3026 RMK A01 T01301025  RH  034%=      5-min Rain = 0
KWA1 192158Z 33018KT 13/M02 A3026 RMK A01 T01311024  RH  034%=      5-min Rain = 0
KWA1 192159Z 33020KT 13/M03 A3026 RMK A01 T01311026  RH  033%=      5-min Rain = 0
KWA1 192200Z 32019KT 13/M03 A3026 RMK A01 T01301027  RH  034%=      5-min Rain = 0
KWA1 192201Z 32022KT 13/M03 A3026 RMK A01 T01301027  RH  034%=      5-min Rain = 0
KWA1 192202Z 32019KT 13/M03 A3026 RMK A01 T01301027  RH  034%=      5-min Rain = 0
KWA1 192203Z 33019KT 13/M03 A3026 RMK A01 T01301027  RH  033%=      5-min Rain = 0
KWA1 192204Z 34019KT 13/M03 A3026 RMK A01 T01301027  RH  033%=      5-min Rain = 0
KWA1 192205Z 33019KT 13/M03 A3026 RMK A01 T01291027  RH  034%=      5-min Rain = 0
KWA1 192206Z 33021KT 13/M03 A3026 RMK A01 T01301026  RH  034%=      5-min Rain = 0
KWA1 192207Z 32019KT 13/M03 A3026 RMK A01 T01301027  RH  033%=      5-min Rain = 0
KWA1 192208Z 33018KT 13/M03 A3026 RMK A01 T01301026  RH  034%=      5-min Rain = 0
KWA1 192209Z 33016KT 13/M03 A3026 RMK A01 T01301026  RH  034%=      5-min Rain = 0
KWA1 192210Z 33016KT 13/M02 A3026 RMK A01 T01321023  RH  034%=      5-min Rain = 0
KWA1 192211Z 33018G23KT 13/M02 A3026 RMK A01 T01331024  RH  034%=      5-min Rain = 0
KWA1 192212Z 34020KT 13/M03 A3026 RMK A01 T01331025  RH  033%=      5-min Rain = 0
KWA1 192213Z 34019KT 13/M03 A3026 RMK A01 T01321026  RH  033%=      5-min Rain = 0
KWA1 192214Z 34017KT 13/M03 A3026 RMK A01 T01301025  RH  034%=      5-min Rain = 0
KWA1 192215Z 34019KT 13/M02 A3026 RMK A01 T01321022  RH  034%=      5-min Rain = 0
KWA1 192216Z 33019G24KT 13/M03 A3026 RMK A01 T01321025  RH  034%=      5-min Rain = 0
KWA1 192217Z 33020KT 13/M03 A3026 RMK A01 T01311026  RH  033%=      5-min Rain = 0
KWA1 192218Z 34021KT 13/M03 A3026 RMK A01 T01301028  RH  033%=      5-min Rain = 0
KWA1 192219Z 33017KT 13/M03 A3026 RMK A01 T01291027  RH  034%=      5-min Rain = 0
KWA1 192220Z 34019KT 13/M03 A3026 RMK A01 T01291028  RH  034%=      5-min Rain = 0
KWA1 192221Z 34019KT 13/M03 A3026 RMK A01 T01291027  RH  034%=      5-min Rain = 0
KWA1 192222Z 34018KT 13/M03 A3026 RMK A01 T01281027  RH  034%=      5-min Rain = 0
KWA1 192223Z 34018G23KT 13/M03 A3026 RMK A01 T01301025  RH  034%=      5-min Rain = 0
KWA1 192224Z 34018KT 13/M03 A3026 RMK A01 T01301025  RH  034%=      5-min Rain = 0
KWA1 192225Z 34018KT 13/M02 A3026 RMK A01 T01311024  RH  034%=      5-min Rain = 0
KWA1 192226Z 33019KT 13/M03 A3026 RMK A01 T01311027  RH  033%=      5-min Rain = 0
KWA1 192227Z 33020KT 13/M03 A3026 RMK A01 T01301026  RH  034%=      5-min Rain = 0
KWA1 192228Z 33018G23KT 13/M03 A3026 RMK A01 T01301025  RH  034%=      5-min Rain = 0
KWA1 192229Z 33019KT 13/M02 A3026 RMK A01 T01311024  RH  034%=      5-min Rain = 0
KWA1 192230Z 33016KT 13/M02 A3026 RMK A01 T01311024  RH  034%=      5-min Rain = 0
KWA1 192231Z 33017KT 13/M02 A3026 RMK A01 T01311024  RH  034%=      5-min Rain = 0
KWA1 192232Z 32018KT 13/M03 A3026 RMK A01 T01311026  RH  034%=      5-min Rain = 0
KWA1 192233Z 32017KT 13/M03 A3026 RMK A01 T01301026  RH  034%=      5-min Rain = 0
KWA1 192234Z 33020KT 13/M03 A3026 RMK A01 T01301025  RH  034%=      5-min Rain = 0
KWA1 192235Z 34022KT 13/M03 A3026 RMK A01 T01301027  RH  034%=      5-min Rain = 0
KWA1 192236Z 34024KT 13/M03 A3026 RMK A01 T01301027  RH  033%=      5-min Rain = 0
KWA1 192237Z 34022KT 13/M03 A3026 RMK A01 T01291029  RH  033%=      5-min Rain = 0
KWA1 192238Z 34022KT 13/M03 A3026 RMK A01 T01291028  RH  033%=      5-min Rain = 0
KWA1 192239Z 34017KT 13/M03 A3026 RMK A01 T01281028  RH  034%=      5-min Rain = 0
KWA1 192240Z 34020KT 13/M03 A3026 RMK A01 T01291025  RH  034%=      5-min Rain = 0
KWA1 192241Z 34019KT 13/M03 A3026 RMK A01 T01291027  RH  034%=      5-min Rain = 0
KWA1 192242Z 34019KT 13/M03 A3026 RMK A01 T01291026  RH  034%=      5-min Rain = 0
KWA1 192243Z 34019KT 13/M03 A3026 RMK A01 T01291026  RH  034%=      5-min Rain = 0
KWA1 192244Z 34018G23KT 13/M03 A3026 RMK A01 T01281026  RH  034%=      5-min Rain = 0
KWA1 192245Z 33020KT 13/M03 A3026 RMK A01 T01291027  RH  034%=      5-min Rain = 0
KWA1 192246Z 33019KT 13/M03 A3026 RMK A01 T01291027  RH  034%=      5-min Rain = 0
KWA1 192247Z 33019KT 13/M03 A3026 RMK A01 T01281026  RH  034%=      5-min Rain = 0
KWA1 192248Z 34018KT 13/M03 A3026 RMK A01 T01291026  RH  034%=      5-min Rain = 0
KWA1 192249Z 34017KT 13/M03 A3026 RMK A01 T01291025  RH  034%=      5-min Rain = 0
KWA1 192250Z 33019KT 13/M03 A3026 RMK A01 T01281027  RH  034%=      5-min Rain = 0
KWA1 192251Z 34018KT 13/M03 A3026 RMK A01 T01281027  RH  034%=      5-min Rain = 0
KWA1 192252Z 34019KT 13/M03 A3026 RMK A01 T01281025  RH  034%=      5-min Rain = 0
KWA1 192253Z 34021KT 13/M03 A3026 RMK A01 T01281027  RH  034%=      5-min Rain = 0
KWA1 192254Z 33017KT 13/M03 A3026 RMK A01 T01271027  RH  034%=      5-min Rain = 0
KWA1 192255Z 33017KT 13/M03 A3026 RMK A01 T01271026  RH  034%=      5-min Rain = 0
KWA1 192256Z 34015KT 13/M03 A3026 RMK A01 T01271025  RH  034%=      5-min Rain = 0
KWA1 192257Z 35017KT 13/M02 A3026 RMK A01 T01271024  RH  035%=      5-min Rain = 0
KWA1 192258Z 34017KT 13/M03 A3026 RMK A01 T01281026  RH  034%=      5-min Rain = 0
KWA1 192259Z 34018KT 13/M03 A3026 RMK A01 T01271025  RH  035%=      5-min Rain = 0
KWA1 192300Z 34019KT 13/M03 A3026 RMK A01 T01271025  RH  035%=      5-min Rain = 0
KWA1 192301Z 34020KT 13/M02 A3026 RMK A01 T01271024  RH  035%=      5-min Rain = 0
KWA1 192302Z 34019KT 13/M02 A3027 RMK A01 T01271024  RH  035%=      5-min Rain = 0
KWA1 192303Z 34016KT 13/M02 A3027 RMK A01 T01271024  RH  035%=      5-min Rain = 0
KWA1 192304Z 34018KT 13/M03 A3027 RMK A01 T01271025  RH  035%=      5-min Rain = 0
KWA1 192305Z 34019KT 13/M02 A3027 RMK A01 T01271024  RH  035%=      5-min Rain = 0
KWA1 192306Z 34018KT 13/M03 A3027 RMK A01 T01271025  RH  035%=      5-min Rain = 0
KWA1 192307Z 34018KT 13/M03 A3027 RMK A01 T01261025  RH  035%=      5-min Rain = 0
KWA1 192308Z 34019KT 13/M03 A3027 RMK A01 T01261025  RH  035%=      5-min Rain = 0
KWA1 192309Z 34017KT 13/M02 A3027 RMK A01 T01261024  RH  035%=      5-min Rain = 0
KWA1 192310Z 34015KT 13/M02 A3027 RMK A01 T01261024  RH  035%=      5-min Rain = 0
KWA1 192311Z 34016KT 13/M02 A3027 RMK A01 T01261023  RH  036%=      5-min Rain = 0
KWA1 192312Z 33019KT 13/M02 A3027 RMK A01 T01261024  RH  035%=      5-min Rain = 0
KWA1 192313Z 33018KT 13/M03 A3027 RMK A01 T01251026  RH  035%=      5-min Rain = 0
KWA1 192314Z 33015KT 13/M03 A3027 RMK A01 T01251026  RH  035%=      5-min Rain = 0
KWA1 192315Z 34014KT 13/M02 A3027 RMK A01 T01251024  RH  035%=      5-min Rain = 0
KWA1 192316Z 34016KT 13/M02 A3027 RMK A01 T01251024  RH  035%=      5-min Rain = 0
KWA1 192317Z 34017KT 13/M03 A3027 RMK A01 T01251025  RH  035%=      5-min Rain = 0
KWA1 192318Z 34017KT 13/M02 A3027 RMK A01 T01251024  RH  036%=      5-min Rain = 0
KWA1 192319Z 34017KT 12/M02 A3027 RMK A01 T01241024  RH  035%=      5-min Rain = 0
KWA1 192320Z 33017KT 12/M02 A3027 RMK A01 T01241024  RH  036%=      5-min Rain = 0
KWA1 192321Z 34016KT 12/M02 A3027 RMK A01 T01241024  RH  036%=      5-min Rain = 0
KWA1 192322Z 34016KT 12/M02 A3027 RMK A01 T01241023  RH  036%=      5-min Rain = 0
KWA1 192323Z 34017KT 12/M03 A3027 RMK A01 T01231025  RH  035%=      5-min Rain = 0
KWA1 192324Z 34017KT 12/M02 A3027 RMK A01 T01231024  RH  036%=      5-min Rain = 0
KWA1 192325Z 34015KT 12/M03 A3027 RMK A01 T01231025  RH  036%=      5-min Rain = 0
KWA1 192326Z 33014KT 12/M02 A3027 RMK A01 T01231024  RH  036%=      5-min Rain = 0
KWA1 192327Z 33015KT 12/M02 A3027 RMK A01 T01221024  RH  036%=      5-min Rain = 0
KWA1 192328Z 33014KT 12/M02 A3027 RMK A01 T01221024  RH  036%=      5-min Rain = 0
KWA1 192329Z 33016KT 12/M02 A3027 RMK A01 T01221024  RH  036%=      5-min Rain = 0
KWA1 192330Z 33015KT 12/M02 A3027 RMK A01 T01221024  RH  036%=      5-min Rain = 0
KWA1 192331Z 33015KT 12/M02 A3027 RMK A01 T01221024  RH  036%=      5-min Rain = 0
KWA1 192332Z 34014KT 12/M02 A3027 RMK A01 T01211024  RH  036%=      5-min Rain = 0
KWA1 192333Z 34015KT 12/M02 A3027 RMK A01 T01211024  RH  036%=      5-min Rain = 0
KWA1 192334Z 34012KT 12/M02 A3027 RMK A01 T01211023  RH  037%=      5-min Rain = 0
KWA1 192335Z 34012KT 12/M02 A3027 RMK A01 T01201022  RH  037%=      5-min Rain = 0
KWA1 192336Z 34015KT 12/M02 A3027 RMK A01 T01191023  RH  037%=      5-min Rain = 0
KWA1 192337Z 34014KT 12/M02 A3027 RMK A01 T01191023  RH  037%=      5-min Rain = 0
KWA1 192338Z 34014KT 12/M02 A3027 RMK A01 T01191023  RH  037%=      5-min Rain = 0
KWA1 192339Z 34013KT 12/M02 A3027 RMK A01 T01191023  RH  037%=      5-min Rain = 0
KWA1 192340Z 34012KT 12/M02 A3027 RMK A01 T01181022  RH  038%=      5-min Rain = 0
KWA1 192341Z 34013KT 12/M02 A3027 RMK A01 T01171022  RH  038%=      5-min Rain = 0
KWA1 192342Z 34013KT 12/M02 A3027 RMK A01 T01161022  RH  038%=      5-min Rain = 0
KWA1 192343Z 35011KT 12/M02 A3027 RMK A01 T01161022  RH  038%=      5-min Rain = 0
KWA1 192344Z 35012KT 12/M02 A3027 RMK A01 T01161022  RH  038%=      5-min Rain = 0
KWA1 192345Z 34014KT 12/M02 A3027 RMK A01 T01151023  RH  038%=      5-min Rain = 0
KWA1 192346Z 34013KT 12/M02 A3027 RMK A01 T01151024  RH  038%=      5-min Rain = 0
KWA1 192347Z 34012KT 12/M02 A3027 RMK A01 T01161023  RH  038%=      5-min Rain = 0
KWA1 192348Z 34012KT 12/M02 A3027 RMK A01 T01151022  RH  038%=      5-min Rain = 0
KWA1 192349Z 34011KT 11/M02 A3027 RMK A01 T01141023  RH  038%=      5-min Rain = 0
KWA1 192350Z 34012KT 11/M02 A3027 RMK A01 T01141022  RH  039%=      5-min Rain = 0
KWA1 192351Z 34011KT 11/M02 A3027 RMK A01 T01131023  RH  039%=      5-min Rain = 0
KWA1 192352Z 34011KT 11/M02 A3027 RMK A01 T01131022  RH  039%=      5-min Rain = 0
KWA1 192353Z 34009KT 11/M02 A3027 RMK A01 T01121022  RH  039%=      5-min Rain = 0
KWA1 192354Z 34011KT 11/M02 A3027 RMK A01 T01111022  RH  039%=      5-min Rain = 0
KWA1 192355Z 34010KT 11/M02 A3027 RMK A01 T01101022  RH  040%=      5-min Rain = 0
KWA1 192356Z 35009KT 11/M02 A3027 RMK A01 T01101022  RH  040%=      5-min Rain = 0
KWA1 192357Z 35010KT 11/M02 A3027 RMK A01 T01091022  RH  040%=      5-min Rain = 0
KWA1 192358Z 35010KT 11/M02 A3027 RMK A01 T01081022  RH  040%=      5-min Rain = 0
KWA1 192359Z 34009KT 11/M02 A3027 RMK A01 T01081022  RH  040%=      5-min Rain = 0
KWA1 200000Z 34010KT 11/M02 A3027 RMK A01 T01071022  RH  040%=      5-min Rain = 0
KWA1 200001Z 34010KT 11/M02 A3027 RMK A01 T01071022  RH  041%=      5-min Rain = 0
KWA1 200002Z 34009KT 11/M02 A3027 RMK A01 T01071022  RH  041%=      5-min Rain = 0
KWA1 200003Z 34009KT 11/M02 A3027 RMK A01 T01061021  RH  041%=      5-min Rain = 0
KWA1 200004Z 34008KT 11/M02 A3027 RMK A01 T01051021  RH  041%=      5-min Rain = 0
KWA1 200005Z 34008KT 10/M02 A3027 RMK A01 T01041021  RH  041%=      5-min Rain = 0
KWA1 200006Z 34008KT 10/M02 A3027 RMK A01 T01031021  RH  042%=      5-min Rain = 0
KWA1 200007Z 35008KT 10/M02 A3027 RMK A01 T01021021  RH  042%=      5-min Rain = 0
KWA1 200008Z 34007KT 10/M02 A3027 RMK A01 T01011021  RH  042%=      5-min Rain = 0
KWA1 200009Z 35007KT 10/M02 A3027 RMK A01 T00991021  RH  043%=      5-min Rain = 0
KWA1 200010Z 35007KT 10/M02 A3027 RMK A01 T00981021  RH  043%=      5-min Rain = 0
KWA1 200011Z 35006KT 10/M02 A3027 RMK A01 T00971021  RH  043%=      5-min Rain = 0
KWA1 200012Z 35006KT 10/M02 A3027 RMK A01 T00951022  RH  044%=      5-min Rain = 0
KWA1 200013Z 35006KT 09/M02 A3027 RMK A01 T00941022  RH  044%=      5-min Rain = 0
KWA1 200014Z 34005KT 09/M02 A3027 RMK A01 T00931022  RH  045%=      5-min Rain = 0
KWA1 200015Z 34006KT 09/M02 A3027 RMK A01 T00911022  RH  045%=      5-min Rain = 0
KWA1 200016Z 35006KT 09/M02 A3027 RMK A01 T00911022  RH  045%=      5-min Rain = 0
KWA1 200017Z 34006KT 09/M02 A3027 RMK A01 T00901022  RH  045%=      5-min Rain = 0
KWA1 200018Z 35006KT 09/M02 A3027 RMK A01 T00891022  RH  046%=      5-min Rain = 0
KWA1 200019Z 35005KT 09/M02 A3027 RMK A01 T00891022  RH  046%=      5-min Rain = 0
KWA1 200020Z 35006KT 09/M02 A3027 RMK A01 T00881022  RH  046%=      5-min Rain = 0
KWA1 200021Z 35006KT 09/M02 A3027 RMK A01 T00881021  RH  046%=      5-min Rain = 0
KWA1 200022Z 35005KT 09/M02 A3027 RMK A01 T00871021  RH  047%=      5-min Rain = 0
KWA1 200023Z 35005KT 09/M02 A3027 RMK A01 T00861021  RH  047%=      5-min Rain = 0
KWA1 200024Z 36005KT 09/M02 A3027 RMK A01 T00851021  RH  047%=      5-min Rain = 0
KWA1 200025Z 36005KT 08/M02 A3027 RMK A01 T00841021  RH  048%=      5-min Rain = 0
KWA1 200026Z 00005KT 08/M02 A3028 RMK A01 T00841021  RH  048%=      5-min Rain = 0
KWA1 200027Z 00005KT 08/M02 A3028 RMK A01 T00831021  RH  048%=      5-min Rain = 0
KWA1 200028Z 01005KT 08/M02 A3028 RMK A01 T00821021  RH  048%=      5-min Rain = 0
KWA1 200029Z 01005KT 08/M02 A3028 RMK A01 T00821021  RH  048%=      5-min Rain = 0
KWA1 200030Z 00005KT 08/M02 A3028 RMK A01 T00811021  RH  049%=      5-min Rain = 0
KWA1 200031Z 00005KT 08/M02 A3028 RMK A01 T00811021  RH  049%=      5-min Rain = 0
KWA1 200032Z 00005KT 08/M02 A3028 RMK A01 T00801021  RH  049%=      5-min Rain = 0
KWA1 200033Z 00005KT 08/M02 A3028 RMK A01 T00791021  RH  049%=      5-min Rain = 0
KWA1 200034Z 00005KT 08/M02 A3028 RMK A01 T00781020  RH  050%=      5-min Rain = 0
KWA1 200035Z 00005KT 08/M02 A3028 RMK A01 T00781020  RH  050%=      5-min Rain = 0
KWA1 200036Z 00005KT 08/M02 A3028 RMK A01 T00781020  RH  050%=      5-min Rain = 0
KWA1 200037Z 01005KT 08/M02 A3028 RMK A01 T00771020  RH  050%=      5-min Rain = 0
KWA1 200038Z 01004KT 08/M02 A3028 RMK A01 T00771021  RH  050%=      5-min Rain = 0
KWA1 200039Z 00005KT 08/M02 A3028 RMK A01 T00771020  RH  050%=      5-min Rain = 0
KWA1 200040Z 00005KT 08/M02 A3028 RMK A01 T00771020  RH  050%=      5-min Rain = 0
KWA1 200041Z 00004KT 08/M02 A3028 RMK A01 T00771021  RH  050%=      5-min Rain = 0
KWA1 200042Z 00004KT 08/M02 A3028 RMK A01 T00771021  RH  050%=      5-min Rain = 0
KWA1 200043Z 00004KT 08/M02 A3028 RMK A01 T00761021  RH  050%=      5-min Rain = 0
KWA1 200044Z 01004KT 08/M02 A3028 RMK A01 T00761021  RH  050%=      5-min Rain = 0
KWA1 200045Z 01004KT 08/M02 A3028 RMK A01 T00761020  RH  050%=      5-min Rain = 0
KWA1 200046Z 00004KT 08/M02 A3028 RMK A01 T00751021  RH  050%=      5-min Rain = 0
KWA1 200047Z 01004KT 08/M02 A3028 RMK A01 T00751021  RH  050%=      5-min Rain = 0
KWA1 200048Z 01004KT 08/M02 A3028 RMK A01 T00751021  RH  050%=      5-min Rain = 0
KWA1 200049Z 01003KT 08/M02 A3028 RMK A01 T00751021  RH  050%=      5-min Rain = 0
KWA1 200050Z 01003KT 08/M02 A3028 RMK A01 T00751021  RH  051%=      5-min Rain = 0
KWA1 200051Z 01003KT 08/M02 A3028 RMK A01 T00751021  RH  051%=      5-min Rain = 0
KWA1 200052Z 01003KT 08/M02 A3028 RMK A01 T00751021  RH  051%=      5-min Rain = 0
KWA1 200053Z 01003KT 08/M02 A3028 RMK A01 T00751021  RH  051%=      5-min Rain = 0
KWA1 200054Z 02003KT 08/M02 A3028 RMK A01 T00751021  RH  050%=      5-min Rain = 0
KWA1 200055Z 02004KT 08/M02 A3028 RMK A01 T00751021  RH  051%=      5-min Rain = 0
KWA1 200056Z 02004KT 08/M02 A3028 RMK A01 T00761021  RH  050%=      5-min Rain = 0
KWA1 200057Z 02004KT 08/M02 A3028 RMK A01 T00761020  RH  050%=      5-min Rain = 0
KWA1 200058Z 03004KT 08/M02 A3028 RMK A01 T00761021  RH  050%=      5-min Rain = 0
KWA1 200059Z 03004KT 08/M02 A3028 RMK A01 T00761021  RH  050%=      5-min Rain = 0
KWA1 200100Z 03004KT 08/M02 A3028 RMK A01 T00751020  RH  051%=      5-min Rain = 0
KWA1 200101Z 03004KT 07/M02 A3028 RMK A01 T00741020  RH  051%=      5-min Rain = 0
KWA1 200102Z 03004KT 07/M02 A3028 RMK A01 T00741020  RH  051%=      5-min Rain = 0
KWA1 200103Z 03004KT 07/M02 A3028 RMK A01 T00741020  RH  051%=      5-min Rain = 0
KWA1 200104Z 03004KT 07/M02 A3028 RMK A01 T00741020  RH  051%=      5-min Rain = 0
KWA1 200105Z 03004KT 07/M02 A3028 RMK A01 T00741020  RH  051%=      5-min Rain = 0
KWA1 200106Z 03005KT 07/M02 A3028 RMK A01 T00741021  RH  051%=      5-min Rain = 0
KWA1 200107Z 03004KT 07/M02 A3029 RMK A01 T00741020  RH  051%=      5-min Rain = 0
KWA1 200108Z 03004KT 07/M02 A3029 RMK A01 T00731020  RH  051%=      5-min Rain = 0
KWA1 200109Z 04004KT 07/M02 A3029 RMK A01 T00731020  RH  052%=      5-min Rain = 0
KWA1 200110Z 04004KT 07/M02 A3029 RMK A01 T00721020  RH  052%=      5-min Rain = 0
KWA1 200111Z 03004KT 07/M02 A3029 RMK A01 T00721020  RH  052%=      5-min Rain = 0
KWA1 200112Z 03004KT 07/M02 A3029 RMK A01 T00721020  RH  052%=      5-min Rain = 0
KWA1 200113Z 03004KT 07/M02 A3029 RMK A01 T00721020  RH  052%=      5-min Rain = 0
KWA1 200114Z 03004KT 07/M02 A3029 RMK A01 T00721020  RH  052%=      5-min Rain = 0
KWA1 200115Z 02004KT 07/M02 A3029 RMK A01 T00711020  RH  052%=      5-min Rain = 0
KWA1 200116Z 02004KT 07/M02 A3029 RMK A01 T00711021  RH  052%=      5-min Rain = 0
KWA1 200117Z 02004KT 07/M02 A3029 RMK A01 T00711021  RH  052%=      5-min Rain = 0
KWA1 200118Z 02004KT 07/M02 A3029 RMK A01 T00711020  RH  052%=      5-min Rain = 0
KWA1 200119Z 01004KT 07/M02 A3029 RMK A01 T00701020  RH  053%=      5-min Rain = 0
KWA1 200120Z 02005KT 07/M02 A3029 RMK A01 T00691020  RH  053%=      5-min Rain = 0
KWA1 200121Z 02005KT 07/M02 A3029 RMK A01 T00691020  RH  053%=      5-min Rain = 0
KWA1 200122Z 02005KT 07/M02 A3029 RMK A01 T00691020  RH  053%=      5-min Rain = 0
KWA1 200123Z 02005KT 07/M02 A3029 RMK A01 T00681020  RH  053%=      5-min Rain = 0
KWA1 200124Z 02005KT 07/M02 A3029 RMK A01 T00671021  RH  054%=      5-min Rain = 0
KWA1 200125Z 02005KT 07/M02 A3029 RMK A01 T00671021  RH  054%=      5-min Rain = 0
KWA1 200126Z 02005KT 07/M02 A3029 RMK A01 T00661021  RH  054%=      5-min Rain = 0
KWA1 200127Z 02004KT 07/M02 A3029 RMK A01 T00661021  RH  054%=      5-min Rain = 0
KWA1 200128Z 02004KT 07/M02 A3029 RMK A01 T00671021  RH  054%=      5-min Rain = 0
KWA1 200129Z 02004KT 07/M02 A3029 RMK A01 T00661021  RH  054%=      5-min Rain = 0
KWA1 200130Z 02005KT 07/M02 A3029 RMK A01 T00651021  RH  054%=      5-min Rain = 0
KWA1 200131Z 02004KT 06/M02 A3029 RMK A01 T00641021  RH  054%=      5-min Rain = 0
KWA1 200132Z 02004KT 06/M02 A3029 RMK A01 T00641021  RH  054%=      5-min Rain = 0
KWA1 200133Z 02004KT 06/M02 A3029 RMK A01 T00641022  RH  054%=      5-min Rain = 0
KWA1 200134Z 02004KT 06/M02 A3029 RMK A01 T00641022  RH  054%=      5-min Rain = 0
KWA1 200135Z 02004KT 06/M02 A3029 RMK A01 T00641022  RH  054%=      5-min Rain = 0
KWA1 200136Z 02004KT 06/M02 A3029 RMK A01 T00641022  RH  054%=      5-min Rain = 0
KWA1 200137Z 03004KT 06/M02 A3029 RMK A01 T00641022  RH  054%=      5-min Rain = 0
KWA1 200138Z 03004KT 06/M02 A3029 RMK A01 T00631022  RH  054%=      5-min Rain = 0
KWA1 200139Z 03004KT 06/M02 A3029 RMK A01 T00631023  RH  054%=      5-min Rain = 0
KWA1 200140Z 03004KT 06/M02 A303 RMK A01 T00631023  RH  054%=      5-min Rain = 0
KWA1 200141Z 03004KT 06/M02 A303 RMK A01 T00631023  RH  054%=      5-min Rain = 0
KWA1 200142Z 03004KT 06/M02 A303 RMK A01 T00631023  RH  054%=      5-min Rain = 0
KWA1 200143Z 03003KT 06/M02 A303 RMK A01 T00631022  RH  054%=      5-min Rain = 0
KWA1 200144Z 03003KT 06/M02 A303 RMK A01 T00631023  RH  054%=      5-min Rain = 0
KWA1 200145Z 04003KT 06/M02 A303 RMK A01 T00631023  RH  054%=      5-min Rain = 0
KWA1 200146Z 04003KT 06/M02 A303 RMK A01 T00631023  RH  054%=      5-min Rain = 0
KWA1 200147Z 04004KT 06/M02 A303 RMK A01 T00631022  RH  054%=      5-min Rain = 0
KWA1 200148Z 05004KT 06/M02 A303 RMK A01 T00631023  RH  054%=      5-min Rain = 0
KWA1 200149Z 05004KT 06/M02 A303 RMK A01 T00631022  RH  054%=      5-min Rain = 0
KWA1 200150Z 05004KT 06/M02 A303 RMK A01 T00631022  RH  054%=      5-min Rain = 0
KWA1 200151Z 05004KT 06/M02 A303 RMK A01 T00621023  RH  055%=      5-min Rain = 0
KWA1 200152Z 05004KT 06/M02 A303 RMK A01 T00611023  RH  055%=      5-min Rain = 0
KWA1 200153Z 05004KT 06/M02 A303 RMK A01 T00611023  RH  055%=      5-min Rain = 0
KWA1 200154Z 05004KT 06/M02 A3031 RMK A01 T00611022  RH  055%=      5-min Rain = 0
KWA1 200155Z 05004KT 06/M02 A3031 RMK A01 T00611022  RH  055%=      5-min Rain = 0
KWA1 200156Z 05004KT 06/M02 A3031 RMK A01 T00611022  RH  055%=      5-min Rain = 0
KWA1 200157Z 05004KT 06/M02 A3031 RMK A01 T00611022  RH  055%=      5-min Rain = 0
KWA1 200158Z 06004KT 06/M02 A3031 RMK A01 T00611022  RH  055%=      5-min Rain = 0
KWA1 200159Z 06005KT 06/M02 A3031 RMK A01 T00611022  RH  055%=      5-min Rain = 0
KWA1 200200Z 06005KT 06/M02 A3031 RMK A01 T00601022  RH  055%=      5-min Rain = 0
KWA1 200201Z 06005KT 06/M02 A3031 RMK A01 T00591023  RH  056%=      5-min Rain = 0
KWA1 200202Z 05005KT 06/M02 A3031 RMK A01 T00591022  RH  056%=      5-min Rain = 0
KWA1 200203Z 05005KT 06/M02 A3031 RMK A01 T00591022  RH  056%=      5-min Rain = 0
KWA1 200204Z 05004KT 06/M02 A3031 RMK A01 T00581022  RH  056%=      5-min Rain = 0
KWA1 200205Z 05004KT 06/M02 A3031 RMK A01 T00581023  RH  056%=      5-min Rain = 0
KWA1 200206Z 05004KT 06/M02 A3031 RMK A01 T00581023  RH  056%=      5-min Rain = 0
KWA1 200207Z 05004KT 06/M02 A3031 RMK A01 T00581023  RH  056%=      5-min Rain = 0
KWA1 200208Z 05004KT 06/M02 A3031 RMK A01 T00571022  RH  056%=      5-min Rain = 0
KWA1 200209Z 05004KT 06/M02 A3031 RMK A01 T00571023  RH  057%=      5-min Rain = 0
KWA1 200210Z 04004KT 06/M02 A3031 RMK A01 T00561023  RH  057%=      5-min Rain = 0
KWA1 200211Z 04004KT 06/M02 A3031 RMK A01 T00561023  RH  057%=      5-min Rain = 0
KWA1 200212Z 04005KT 06/M02 A3031 RMK A01 T00551023  RH  057%=      5-min Rain = 0
KWA1 200213Z 04005KT 06/M02 A3031 RMK A01 T00551023  RH  057%=      5-min Rain = 0
KWA1 200214Z 04005KT 06/M02 A3031 RMK A01 T00561022  RH  057%=      5-min Rain = 0
KWA1 200215Z 04005KT 06/M02 A3031 RMK A01 T00561023  RH  057%=      5-min Rain = 0
KWA1 200216Z 04005KT 06/M02 A3031 RMK A01 T00561023  RH  057%=      5-min Rain = 0
KWA1 200217Z 04005KT 06/M02 A3031 RMK A01 T00561023  RH  057%=      5-min Rain = 0
KWA1 200218Z 04005KT 06/M02 A3031 RMK A01 T00561022  RH  057%=      5-min Rain = 0
KWA1 200219Z 04005KT 06/M02 A3031 RMK A01 T00561023  RH  057%=      5-min Rain = 0
KWA1 200220Z 04005KT 06/M02 A3032 RMK A01 T00561023  RH  057%=      5-min Rain = 0
KWA1 200221Z 04005KT 06/M02 A3032 RMK A01 T00561023  RH  057%=      5-min Rain = 0
KWA1 200222Z 04005KT 06/M02 A3032 RMK A01 T00561023  RH  057%=      5-min Rain = 0
KWA1 200223Z 04005KT 06/M02 A3032 RMK A01 T00561023  RH  057%=      5-min Rain = 0
KWA1 200224Z 04006KT 06/M02 A3032 RMK A01 T00561023  RH  057%=      5-min Rain = 0
KWA1 200225Z 04005KT 06/M02 A3032 RMK A01 T00561023  RH  057%=      5-min Rain = 0
KWA1 200226Z 05006KT 06/M02 A3032 RMK A01 T00561023  RH  057%=      5-min Rain = 0
KWA1 200227Z 05006KT 06/M02 A3032 RMK A01 T00551023  RH  057%=      5-min Rain = 0
KWA1 200228Z 05006KT 05/M02 A3032 RMK A01 T00541023  RH  057%=      5-min Rain = 0
KWA1 200229Z 05006KT 05/M02 A3032 RMK A01 T00531023  RH  058%=      5-min Rain = 0
KWA1 200230Z 05006KT 05/M02 A3032 RMK A01 T00531023  RH  058%=      5-min Rain = 0
KWA1 200231Z 05007KT 05/M02 A3032 RMK A01 T00521023  RH  058%=      5-min Rain = 0
KWA1 200232Z 05007KT 05/M02 A3032 RMK A01 T00511024  RH  058%=      5-min Rain = 0
KWA1 200233Z 05007KT 05/M03 A3032 RMK A01 T00501025  RH  059%=      5-min Rain = 0
KWA1 200234Z 05007KT 05/M03 A3032 RMK A01 T00491025  RH  059%=      5-min Rain = 0
KWA1 200235Z 05007KT 05/M02 A3032 RMK A01 T00481024  RH  060%=      5-min Rain = 0
KWA1 200236Z 05007KT 05/M02 A3032 RMK A01 T00471023  RH  060%=      5-min Rain = 0
KWA1 200237Z 05007KT 05/M02 A3032 RMK A01 T00461023  RH  061%=      5-min Rain = 0
KWA1 200238Z 05007KT 05/M02 A3032 RMK A01 T00451023  RH  061%=      5-min Rain = 0
KWA1 200239Z 05007KT 05/M02 A3032 RMK A01 T00451022  RH  061%=      5-min Rain = 0
KWA1 200240Z 05007KT 04/M02 A3032 RMK A01 T00441023  RH  062%=      5-min Rain = 0
KWA1 200241Z 05006KT 04/M02 A3032 RMK A01 T00441022  RH  062%=      5-min Rain = 0
KWA1 200242Z 05006KT 04/M02 A3032 RMK A01 T00431022  RH  062%=      5-min Rain = 0
KWA1 200243Z 04006KT 04/M02 A3032 RMK A01 T00431022  RH  063%=      5-min Rain = 0
KWA1 200244Z 04007KT 04/M02 A3032 RMK A01 T00431022  RH  063%=      5-min Rain = 0
KWA1 200245Z 04007KT 04/M02 A3032 RMK A01 T00431022  RH  063%=      5-min Rain = 0
KWA1 200246Z 04007KT 04/M02 A3032 RMK A01 T00431021  RH  063%=      5-min Rain = 0
KWA1 200247Z 04007KT 04/M02 A3033 RMK A01 T00431021  RH  063%=      5-min Rain = 0
KWA1 200248Z 04008KT 04/M02 A3033 RMK A01 T00431021  RH  063%=      5-min Rain = 0
KWA1 200249Z 04008KT 04/M02 A3033 RMK A01 T00421021  RH  063%=      5-min Rain = 0
KWA1 200250Z 04008KT 04/M02 A3033 RMK A01 T00431021  RH  063%=      5-min Rain = 0
KWA1 200251Z 04007KT 04/M02 A3033 RMK A01 T00441020  RH  063%=      5-min Rain = 0
KWA1 200252Z 04007KT 05/M02 A3033 RMK A01 T00461020  RH  062%=      5-min Rain = 0
KWA1 200253Z 03008KT 05/M02 A3033 RMK A01 T00461020  RH  062%=      5-min Rain = 0
KWA1 200254Z 03008KT 05/M02 A3033 RMK A01 T00471020  RH  062%=      5-min Rain = 0
KWA1 200255Z 03007KT 05/M02 A3033 RMK A01 T00471020  RH  062%=      5-min Rain = 0
KWA1 200256Z 03007KT 05/M02 A3033 RMK A01 T00471020  RH  062%=      5-min Rain = 0
KWA1 200257Z 03007KT 05/M02 A3033 RMK A01 T00481020  RH  061%=      5-min Rain = 0
KWA1 200258Z 03007KT 05/M02 A3033 RMK A01 T00491020  RH  061%=      5-min Rain = 0
KWA1 200259Z 03006KT 05/M02 A3033 RMK A01 T00501020  RH  061%=      5-min Rain = 0
KWA1 200300Z 03007KT 05/M02 A3033 RMK A01 T00491020  RH  061%=      5-min Rain = 0
KWA1 200301Z 04007KT 05/M02 A3033 RMK A01 T00501020  RH  061%=      5-min Rain = 0
KWA1 200302Z 04007KT 05/M02 A3033 RMK A01 T00501020  RH  061%=      5-min Rain = 0
KWA1 200303Z 04007KT 05/M02 A3033 RMK A01 T00491020  RH  061%=      5-min Rain = 0
KWA1 200304Z 04007KT 05/M02 A3033 RMK A01 T00491020  RH  061%=      5-min Rain = 0
KWA1 200305Z 04008KT 05/M02 A3033 RMK A01 T00481021  RH  061%=      5-min Rain = 0
KWA1 200306Z 04008KT 05/M02 A3033 RMK A01 T00461022  RH  062%=      5-min Rain = 0
KWA1 200307Z 04008KT 04/M02 A3032 RMK A01 T00441021  RH  062%=      5-min Rain = 0
KWA1 200308Z 04008KT 04/M02 A3032 RMK A01 T00431021  RH  063%=      5-min Rain = 0
KWA1 200309Z 05007KT 04/M02 A3032 RMK A01 T00421021  RH  064%=      5-min Rain = 0
KWA1 200310Z 05007KT 04/M02 A3032 RMK A01 T00411020  RH  064%=      5-min Rain = 0
KWA1 200311Z 05007KT 04/M02 A3032 RMK A01 T00401020  RH  065%=      5-min Rain = 0
KWA1 200312Z 05007KT 04/M02 A3032 RMK A01 T00381021  RH  065%=      5-min Rain = 0
KWA1 200313Z 05007KT 04/M02 A3032 RMK A01 T00371021  RH  066%=      5-min Rain = 0
KWA1 200314Z 05007KT 04/M02 A3032 RMK A01 T00371021  RH  066%=      5-min Rain = 0
KWA1 200315Z 05007KT 04/M02 A3032 RMK A01 T00361021  RH  066%=      5-min Rain = 0
KWA1 200316Z 05007KT 04/M02 A3032 RMK A01 T00361021  RH  067%=      5-min Rain = 0
KWA1 200317Z 05006KT 04/M02 A3032 RMK A01 T00361020  RH  067%=      5-min Rain = 0
KWA1 200318Z 05006KT 04/M02 A3032 RMK A01 T00361020  RH  067%=      5-min Rain = 0
KWA1 200319Z 06006KT 04/M02 A3032 RMK A01 T00361020  RH  067%=      5-min Rain = 0
KWA1 200320Z 06006KT 04/M02 A3032 RMK A01 T00361020  RH  067%=      5-min Rain = 0
KWA1 200321Z 06006KT 04/M02 A3031 RMK A01 T00361020  RH  067%=      5-min Rain = 0
KWA1 200322Z 06005KT 04/M02 A3031 RMK A01 T00361020  RH  067%=      5-min Rain = 0
KWA1 200323Z 06005KT 04/M02 A3031 RMK A01 T00361020  RH  067%=      5-min Rain = 0
KWA1 200324Z 06005KT 04/M02 A3031 RMK A01 T00351021  RH  067%=      5-min Rain = 0
KWA1 200325Z 06005KT 04/M02 A3031 RMK A01 T00351021  RH  067%=      5-min Rain = 0
KWA1 200326Z 06005KT 03/M02 A3031 RMK A01 T00341021  RH  067%=      5-min Rain = 0
KWA1 200327Z 06006KT 03/M02 A3031 RMK A01 T00331021  RH  067%=      5-min Rain = 0
KWA1 200328Z 07006KT 03/M02 A3031 RMK A01 T00321022  RH  068%=      5-min Rain = 0
KWA1 200329Z 07006KT 03/M02 A3031 RMK A01 T00311023  RH  068%=      5-min Rain = 0
KWA1 200330Z 06006KT 03/M02 A3031 RMK A01 T00301023  RH  068%=      5-min Rain = 0
KWA1 200331Z 06006KT 03/M02 A3031 RMK A01 T00301023  RH  068%=      5-min Rain = 0
KWA1 200332Z 06006KT 03/M02 A3031 RMK A01 T00301023  RH  068%=      5-min Rain = 0
KWA1 200333Z 06006KT 03/M02 A3031 RMK A01 T00291024  RH  068%=      5-min Rain = 0
KWA1 200334Z 06006KT 03/M02 A3031 RMK A01 T00281024  RH  069%=      5-min Rain = 0
KWA1 200335Z 06006KT 03/M02 A3031 RMK A01 T00281024  RH  069%=      5-min Rain = 0
KWA1 200336Z 06006KT 03/M02 A3031 RMK A01 T00271024  RH  069%=      5-min Rain = 0
KWA1 200337Z 06006KT 03/M02 A3031 RMK A01 T00271024  RH  069%=      5-min Rain = 0
KWA1 200338Z 06006KT 03/M02 A3032 RMK A01 T00261024  RH  069%=      5-min Rain = 0
KWA1 200339Z 06006KT 03/M02 A3032 RMK A01 T00261024  RH  069%=      5-min Rain = 0
KWA1 200340Z 06006KT 03/M02 A3032 RMK A01 T00261024  RH  070%=      5-min Rain = 0
KWA1 200341Z 06006KT 03/M02 A3032 RMK A01 T00261024  RH  070%=      5-min Rain = 0
KWA1 200342Z 06006KT 03/M02 A3032 RMK A01 T00261024  RH  070%=      5-min Rain = 0
KWA1 200343Z 06006KT 03/M02 A3032 RMK A01 T00261023  RH  070%=      5-min Rain = 0
KWA1 200344Z 06005KT 03/M02 A3032 RMK A01 T00261024  RH  070%=      5-min Rain = 0
KWA1 200345Z 06005KT 03/M02 A3032 RMK A01 T00261023  RH  070%=      5-min Rain = 0
KWA1 200346Z 06005KT 03/M02 A3032 RMK A01 T00261023  RH  070%=      5-min Rain = 0
KWA1 200347Z 06005KT 03/M02 A3032 RMK A01 T00261023  RH  070%=      5-min Rain = 0
KWA1 200348Z 06004KT 03/M02 A3032 RMK A01 T00261023  RH  070%=      5-min Rain = 0
KWA1 200349Z 07004KT 03/M02 A3032 RMK A01 T00271023  RH  070%=      5-min Rain = 0
KWA1 200350Z 08003KT 03/M02 A3032 RMK A01 T00261023  RH  070%=      5-min Rain = 0
KWA1 200351Z 08003KT 03/M02 A3032 RMK A01 T00261023  RH  070%=      5-min Rain = 0
KWA1 200352Z 08003KT 03/M02 A3032 RMK A01 T00261023  RH  070%=      5-min Rain = 0
KWA1 200353Z 09003KT 03/M02 A3032 RMK A01 T00261023  RH  070%=      5-min Rain = 0
KWA1 200354Z 10002KT 03/M02 A3032 RMK A01 T00261023  RH  070%=      5-min Rain = 0
KWA1 200355Z 11003KT 03/M02 A3032 RMK A01 T00261024  RH  070%=      5-min Rain = 0
KWA1 200356Z 10003KT 03/M02 A3032 RMK A01 T00261024  RH  070%=      5-min Rain = 0
KWA1 200357Z 11003KT 03/M02 A3032 RMK A01 T00271023  RH  070%=      5-min Rain = 0
KWA1 200358Z 11003KT 03/M02 A3032 RMK A01 T00281023  RH  069%=      5-min Rain = 0
KWA1 200359Z 12003KT 03/M02 A3032 RMK A01 T00261024  RH  069%=      5-min Rain = 0
KWA1 200400Z 12003KT 03/M02 A3032 RMK A01 T00261024  RH  070%=      5-min Rain = 0
KWA1 200401Z 10002KT 03/M02 A3032 RMK A01 T00261024  RH  070%=      5-min Rain = 0
KWA1 200402Z 10003KT 03/M03 A3033 RMK A01 T00251025  RH  070%=      5-min Rain = 0
KWA1 200403Z 11002KT 02/M03 A3033 RMK A01 T00241025  RH  070%=      5-min Rain = 0
KWA1 200404Z 10003KT 02/M03 A3033 RMK A01 T00241025  RH  070%=      5-min Rain = 0
KWA1 200405Z 10003KT 02/M03 A3033 RMK A01 T00241025  RH  070%=      5-min Rain = 0
KWA1 200406Z 11003KT 02/M03 A3033 RMK A01 T00241025  RH  070%=      5-min Rain = 0
KWA1 200407Z 12003KT 03/M02 A3033 RMK A01 T00261024  RH  070%=      5-min Rain = 0
KWA1 200408Z 14003KT 03/M03 A3033 RMK A01 T00261025  RH  069%=      5-min Rain = 0
KWA1 200409Z 15003KT 03/M03 A3033 RMK A01 T00251026  RH  069%=      5-min Rain = 0
KWA1 200410Z 16004KT 02/M03 A3033 RMK A01 T00231027  RH  070%=      5-min Rain = 0
KWA1 200411Z 17004KT 02/M03 A3033 RMK A01 T00201028  RH  071%=      5-min Rain = 0
KWA1 200412Z 17004KT 02/M03 A3033 RMK A01 T00191026  RH  072%=      5-min Rain = 0
KWA1 200413Z 17004KT 02/M03 A3034 RMK A01 T00181026  RH  072%=      5-min Rain = 0
KWA1 200414Z 17004KT 02/M03 A3034 RMK A01 T00171027  RH  073%=      5-min Rain = 0
KWA1 200415Z 17004KT 02/M03 A3034 RMK A01 T00161027  RH  073%=      5-min Rain = 0
KWA1 200416Z 17004KT 02/M03 A3034 RMK A01 T00151027  RH  074%=      5-min Rain = 0
KWA1 200417Z 17004KT 01/M03 A3034 RMK A01 T00141027  RH  074%=      5-min Rain = 0
KWA1 200418Z 16004KT 02/M03 A3034 RMK A01 T00151026  RH  075%=      5-min Rain = 0
KWA1 200419Z 16004KT 02/M03 A3034 RMK A01 T00161025  RH  074%=      5-min Rain = 0
KWA1 200420Z 15004KT 02/M03 A3034 RMK A01 T00161025  RH  074%=      5-min Rain = 0
KWA1 200421Z 15005KT 02/M03 A3034 RMK A01 T00171026  RH  073%=      5-min Rain = 0
KWA1 200422Z 14005KT 02/M03 A3034 RMK A01 T00161027  RH  073%=      5-min Rain = 0
KWA1 200423Z 14005KT 02/M03 A3034 RMK A01 T00151028  RH  073%=      5-min Rain = 0
KWA1 200424Z 14005KT 02/M03 A3034 RMK A01 T00151028  RH  073%=      5-min Rain = 0
KWA1 200425Z 14005KT 01/M03 A3034 RMK A01 T00141028  RH  074%=      5-min Rain = 0
KWA1 200426Z 14005KT 01/M03 A3034 RMK A01 T00141028  RH  074%=      5-min Rain = 0
KWA1 200427Z 14004KT 01/M03 A3034 RMK A01 T00141028  RH  074%=      5-min Rain = 0
KWA1 200428Z 14004KT 01/M03 A3034 RMK A01 T00141028  RH  074%=      5-min Rain = 0
KWA1 200429Z 14004KT 01/M03 A3034 RMK A01 T00141029  RH  073%=      5-min Rain = 0
KWA1 200430Z 15004KT 02/M03 A3034 RMK A01 T00151028  RH  073%=      5-min Rain = 0
KWA1 200431Z 14004KT 02/M03 A3034 RMK A01 T00151029  RH  073%=      5-min Rain = 0
KWA1 200432Z 15004KT 02/M03 A3034 RMK A01 T00151029  RH  073%=      5-min Rain = 0
KWA1 200433Z 16004KT 01/M03 A3034 RMK A01 T00141029  RH  073%=      5-min Rain = 0
KWA1 200434Z 16004KT 01/M03 A3034 RMK A01 T00131029  RH  074%=      5-min Rain = 0
KWA1 200435Z 16004KT 01/M03 A3034 RMK A01 T00131029  RH  074%=      5-min Rain = 0
KWA1 200436Z 16004KT 01/M03 A3034 RMK A01 T00131029  RH  074%=      5-min Rain = 0
KWA1 200437Z 15004KT 01/M03 A3034 RMK A01 T00131029  RH  074%=      5-min Rain = 0
KWA1 200438Z 14004KT 01/M03 A3034 RMK A01 T00131029  RH  074%=      5-min Rain = 0
KWA1 200439Z 13004KT 01/M03 A3034 RMK A01 T00131029  RH  074%=      5-min Rain = 0
KWA1 200440Z 13005KT 01/M03 A3034 RMK A01 T00131028  RH  074%=      5-min Rain = 0
KWA1 200441Z 12005KT 01/M03 A3034 RMK A01 T00131029  RH  074%=      5-min Rain = 0
KWA1 200442Z 12005KT 01/M03 A3034 RMK A01 T00131029  RH  074%=      5-min Rain = 0
KWA1 200443Z 11005KT 01/M03 A3034 RMK A01 T00111030  RH  074%=      5-min Rain = 0
KWA1 200444Z 12005KT 01/M03 A3035 RMK A01 T00111030  RH  074%=      5-min Rain = 0
KWA1 200445Z 12005KT 01/M03 A3035 RMK A01 T00101030  RH  075%=      5-min Rain = 0
KWA1 200446Z 13005KT 01/M03 A3035 RMK A01 T00101029  RH  075%=      5-min Rain = 0
KWA1 200447Z 14005KT 01/M03 A3035 RMK A01 T00101029  RH  075%=      5-min Rain = 0
KWA1 200448Z 15004KT 01/M03 A3035 RMK A01 T00091030  RH  075%=      5-min Rain = 0
KWA1 200449Z 15004KT 01/M03 A3035 RMK A01 T00081031  RH  075%=      5-min Rain = 0
KWA1 200450Z 15005KT 01/M03 A3035 RMK A01 T00081030  RH  076%=      5-min Rain = 0
KWA1 200451Z 15005KT 01/M03 A3035 RMK A01 T00101029  RH  075%=      5-min Rain = 0
KWA1 200452Z 15005KT 01/M03 A3036 RMK A01 T00101030  RH  075%=      5-min Rain = 0
KWA1 200453Z 14005KT 01/M03 A3036 RMK A01 T00091030  RH  075%=      5-min Rain = 0
KWA1 200454Z 14005KT 01/M03 A3036 RMK A01 T00091030  RH  075%=      5-min Rain = 0
KWA1 200455Z 14005KT 01/M03 A3036 RMK A01 T00081031  RH  075%=      5-min Rain = 0
KWA1 200456Z 15005KT 01/M03 A3036 RMK A01 T00071032  RH  076%=      5-min Rain = 0
KWA1 200457Z 15006KT 01/M03 A3035 RMK A01 T00061032  RH  076%=      5-min Rain = 0
KWA1 200458Z 16005KT 01/M03 A3035 RMK A01 T00051032  RH  077%=      5-min Rain = 0
KWA1 200459Z 16005KT 00/M03 A3036 RMK A01 T00041032  RH  077%=      5-min Rain = 0
KWA1 200500Z 17005KT 00/M03 A3036 RMK A01 T00031031  RH  078%=      5-min Rain = 0
KWA1 200501Z 17005KT 00/M03 A3036 RMK A01 T00031031  RH  078%=      5-min Rain = 0
KWA1 200502Z 17005KT 00/M03 A3036 RMK A01 T00031031  RH  078%=      5-min Rain = 0
KWA1 200503Z 17005KT 00/M03 A3036 RMK A01 T00041030  RH  078%=      5-min Rain = 0
KWA1 200504Z 17005KT 01/M03 A3036 RMK A01 T00051030  RH  078%=      5-min Rain = 0
KWA1 200505Z 17005KT 01/M03 A3036 RMK A01 T00061030  RH  077%=      5-min Rain = 0
KWA1 200506Z 17004KT 01/M03 A3036 RMK A01 T00071029  RH  077%=      5-min Rain = 0
KWA1 200507Z 16004KT 01/M03 A3036 RMK A01 T00071030  RH  076%=      5-min Rain = 0
KWA1 200508Z 15004KT 01/M03 A3036 RMK A01 T00071030  RH  076%=      5-min Rain = 0
KWA1 200509Z 15004KT 01/M03 A3036 RMK A01 T00071030  RH  076%=      5-min Rain = 0
KWA1 200510Z 14004KT 01/M03 A3036 RMK A01 T00071030  RH  076%=      5-min Rain = 0
KWA1 200511Z 14004KT 01/M03 A3036 RMK A01 T00071030  RH  076%=      5-min Rain = 0
KWA1 200512Z 14004KT 01/M03 A3036 RMK A01 T00061031  RH  076%=      5-min Rain = 0
KWA1 200513Z 15004KT 01/M03 A3036 RMK A01 T00051032  RH  076%=      5-min Rain = 0
KWA1 200514Z 15004KT 01/M03 A3036 RMK A01 T00051032  RH  076%=      5-min Rain = 0
KWA1 200515Z 15004KT 00/M03 A3036 RMK A01 T00041032  RH  077%=      5-min Rain = 0
KWA1 200516Z 15004KT 00/M03 A3036 RMK A01 T00031033  RH  077%=      5-min Rain = 0
KWA1 200517Z 14004KT 00/M03 A3036 RMK A01 T00031033  RH  077%=      5-min Rain = 0
KWA1 200518Z 14004KT 00/M03 A3036 RMK A01 T00021033  RH  077%=      5-min Rain = 0
KWA1 200519Z 13004KT 00/M03 A3036 RMK A01 T00011033  RH  077%=      5-min Rain = 0
KWA1 200520Z 12004KT 00/M03 A3036 RMK A01 T00021033  RH  078%=      5-min Rain = 0
KWA1 200521Z 11004KT 00/M03 A3036 RMK A01 T00031032  RH  077%=      5-min Rain = 0
KWA1 200522Z 11005KT 01/M03 A3036 RMK A01 T00051031  RH  077%=      5-min Rain = 0
KWA1 200523Z 10005KT 01/M03 A3037 RMK A01 T00051032  RH  076%=      5-min Rain = 0
KWA1 200524Z 09005KT 00/M03 A3037 RMK A01 T00041032  RH  077%=      5-min Rain = 0
KWA1 200525Z 09005KT 01/M03 A3037 RMK A01 T00051031  RH  077%=      5-min Rain = 0
KWA1 200526Z 09005KT 00/M03 A3037 RMK A01 T00041032  RH  077%=      5-min Rain = 0
KWA1 200527Z 09005KT 00/M03 A3037 RMK A01 T00041031  RH  078%=      5-min Rain = 0
KWA1 200528Z 09005KT 01/M03 A3036 RMK A01 T00051030  RH  077%=      5-min Rain = 0
KWA1 200529Z 09005KT 01/M03 A3036 RMK A01 T00051030  RH  077%=      5-min Rain = 0
KWA1 200530Z 09005KT 01/M03 A3036 RMK A01 T00061030  RH  077%=      5-min Rain = 0
KWA1 200531Z 10005KT 01/M03 A3036 RMK A01 T00051031  RH  077%=      5-min Rain = 0
KWA1 200532Z 10005KT 00/M03 A3035 RMK A01 T00041030  RH  078%=      5-min Rain = 0
KWA1 200533Z 09006KT 01/M03 A3035 RMK A01 T00061029  RH  078%=      5-min Rain = 0
KWA1 200534Z 10006KT 01/M03 A3035 RMK A01 T00091027  RH  077%=      5-min Rain = 0
KWA1 200535Z 09005KT 01/M03 A3036 RMK A01 T00131026  RH  075%=      5-min Rain = 0
KWA1 200536Z 09005KT 01/M03 A3036 RMK A01 T00141028  RH  074%=      5-min Rain = 0
KWA1 200537Z 10005KT 02/M03 A3036 RMK A01 T00151028  RH  073%=      5-min Rain = 0
KWA1 200538Z 10005KT 02/M03 A3036 RMK A01 T00161028  RH  072%=      5-min Rain = 0
KWA1 200539Z 10004KT 02/M03 A3035 RMK A01 T00171029  RH  072%=      5-min Rain = 0
KWA1 200540Z 10004KT 02/M03 A3035 RMK A01 T00161030  RH  071%=      5-min Rain = 0
KWA1 200541Z 10004KT 02/M03 A3035 RMK A01 T00151031  RH  071%=      5-min Rain = 0
KWA1 200542Z 09005KT 02/M03 A3035 RMK A01 T00151031  RH  071%=      5-min Rain = 0
KWA1 200543Z 09005KT 02/M03 A3035 RMK A01 T00151031  RH  072%=      5-min Rain = 0
KWA1 200544Z 09005KT 01/M03 A3035 RMK A01 T00131032  RH  072%=      5-min Rain = 0
KWA1 200545Z 08005KT 01/M03 A3036 RMK A01 T00121032  RH  072%=      5-min Rain = 0
KWA1 200546Z 08005KT 01/M03 A3036 RMK A01 T00121031  RH  073%=      5-min Rain = 0
KWA1 200547Z 08005KT 01/M03 A3036 RMK A01 T00121032  RH  073%=      5-min Rain = 0
KWA1 200548Z 09004KT 01/M03 A3035 RMK A01 T00121031  RH  073%=      5-min Rain = 0
KWA1 200549Z 09004KT 01/M03 A3035 RMK A01 T00131030  RH  073%=      5-min Rain = 0
KWA1 200550Z 09004KT 01/M03 A3036 RMK A01 T00131031  RH  073%=      5-min Rain = 0
KWA1 200551Z 09003KT 01/M03 A3035 RMK A01 T00131031  RH  072%=      5-min Rain = 0
KWA1 200552Z 10003KT 01/M03 A3035 RMK A01 T00131032  RH  072%=      5-min Rain = 0
KWA1 200553Z 11003KT 01/M03 A3035 RMK A01 T00111033  RH  073%=      5-min Rain = 0
KWA1 200554Z 11003KT 01/M03 A3035 RMK A01 T00091034  RH  073%=      5-min Rain = 0
KWA1 200555Z 11003KT 01/M03 A3035 RMK A01 T00081034  RH  073%=      5-min Rain = 0
KWA1 200556Z 11004KT 01/M03 A3035 RMK A01 T00081034  RH  074%=      5-min Rain = 0
KWA1 200557Z 11004KT 01/M03 A3035 RMK A01 T00081033  RH  074%=      5-min Rain = 0
KWA1 200558Z 11004KT 01/M03 A3035 RMK A01 T00081033  RH  074%=      5-min Rain = 0
KWA1 200559Z 11004KT 01/M03 A3035 RMK A01 T00081033  RH  074%=      5-min Rain = 0

Page generated in 0.1466 seconds.